Observation data for Claude 12 Southwest on 08/20/2019      Previous  Date  Next       Current Mesonet Observations  Soil Data  Daily Summary Page  Observations in Plain Language
KCL1 200500Z 15008KT 28/15 A3009 RMK A01 T02820152  RH  045%=      5-min Rain = 0
KCL1 200501Z 15007KT 28/15 A3009 RMK A01 T02830152  RH  045%=      5-min Rain = 0
KCL1 200502Z 15008KT 28/15 A3009 RMK A01 T02830152  RH  045%=      5-min Rain = 0
KCL1 200503Z 15008KT 28/15 A3009 RMK A01 T02830152  RH  045%=      5-min Rain = 0
KCL1 200504Z 15007KT 28/15 A3009 RMK A01 T02830152  RH  045%=      5-min Rain = 0
KCL1 200505Z 15007KT 28/15 A3008 RMK A01 T02830152  RH  045%=      5-min Rain = 0
KCL1 200506Z 15008KT 28/15 A3008 RMK A01 T02830152  RH  045%=      5-min Rain = 0
KCL1 200507Z 15009KT 28/15 A3008 RMK A01 T02830152  RH  045%=      5-min Rain = 0
KCL1 200508Z 15009KT 28/15 A3008 RMK A01 T02820152  RH  045%=      5-min Rain = 0
KCL1 200509Z 15009KT 28/15 A3008 RMK A01 T02830152  RH  045%=      5-min Rain = 0
KCL1 200510Z 15008KT 28/15 A3008 RMK A01 T02830152  RH  045%=      5-min Rain = 0
KCL1 200511Z 15008KT 28/15 A3008 RMK A01 T02830152  RH  045%=      5-min Rain = 0
KCL1 200512Z 15008KT 28/15 A3008 RMK A01 T02830152  RH  045%=      5-min Rain = 0
KCL1 200513Z 15008KT 28/15 A3008 RMK A01 T02830152  RH  045%=      5-min Rain = 0
KCL1 200514Z 15008KT 28/15 A3008 RMK A01 T02830152  RH  045%=      5-min Rain = 0
KCL1 200515Z 15008KT 28/15 A3008 RMK A01 T02830152  RH  045%=      5-min Rain = 0
KCL1 200516Z 14008KT 28/15 A3008 RMK A01 T02830152  RH  045%=      5-min Rain = 0
KCL1 200517Z 14009KT 28/15 A3008 RMK A01 T02830152  RH  045%=      5-min Rain = 0
KCL1 200518Z 14008KT 28/15 A3008 RMK A01 T02830152  RH  045%=      5-min Rain = 0
KCL1 200519Z 15008KT 28/15 A3008 RMK A01 T02830152  RH  045%=      5-min Rain = 0
KCL1 200520Z 15008KT 28/15 A3008 RMK A01 T02830152  RH  045%=      5-min Rain = 0
KCL1 200521Z 15008KT 28/15 A3008 RMK A01 T02830152  RH  045%=      5-min Rain = 0
KCL1 200522Z 15008KT 28/15 A3008 RMK A01 T02830152  RH  045%=      5-min Rain = 0
KCL1 200523Z 14007KT 28/15 A3008 RMK A01 T02830151  RH  045%=      5-min Rain = 0
KCL1 200524Z 15005KT 28/15 A3008 RMK A01 T02830152  RH  045%=      5-min Rain = 0
KCL1 200525Z 15006KT 28/15 A3008 RMK A01 T02820152  RH  045%=      5-min Rain = 0
KCL1 200526Z 15006KT 28/15 A3008 RMK A01 T02810152  RH  045%=      5-min Rain = 0
KCL1 200527Z 15006KT 28/15 A3008 RMK A01 T02800151  RH  045%=      5-min Rain = 0
KCL1 200528Z 15006KT 28/15 A3008 RMK A01 T02800151  RH  045%=      5-min Rain = 0
KCL1 200529Z 15006KT 28/15 A3008 RMK A01 T02790150  RH  045%=      5-min Rain = 0
KCL1 200530Z 15006KT 28/15 A3008 RMK A01 T02800150  RH  045%=      5-min Rain = 0
KCL1 200531Z 15007KT 28/15 A3008 RMK A01 T02810150  RH  045%=      5-min Rain = 0
KCL1 200532Z 17008KT 28/15 A3008 RMK A01 T02820149  RH  044%=      5-min Rain = 0
KCL1 200533Z 15009KT 28/15 A3008 RMK A01 T02830149  RH  044%=      5-min Rain = 0
KCL1 200534Z 15007KT 29/15 A3008 RMK A01 T02860150  RH  044%=      5-min Rain = 0
KCL1 200535Z 15007KT 29/15 A3008 RMK A01 T02870150  RH  043%=      5-min Rain = 0
KCL1 200536Z 15006KT 29/15 A3008 RMK A01 T02870150  RH  043%=      5-min Rain = 0
KCL1 200537Z 15006KT 29/15 A3008 RMK A01 T02870150  RH  043%=      5-min Rain = 0
KCL1 200538Z 15006KT 29/15 A3008 RMK A01 T02860150  RH  044%=      5-min Rain = 0
KCL1 200539Z 15006KT 29/15 A3008 RMK A01 T02860150  RH  044%=      5-min Rain = 0
KCL1 200540Z 15006KT 29/15 A3008 RMK A01 T02850150  RH  044%=      5-min Rain = 0
KCL1 200541Z 15005KT 29/15 A3008 RMK A01 T02850151  RH  044%=      5-min Rain = 0
KCL1 200542Z 15006KT 28/15 A3008 RMK A01 T02840150  RH  044%=      5-min Rain = 0
KCL1 200543Z 16006KT 28/15 A3008 RMK A01 T02830151  RH  044%=      5-min Rain = 0
KCL1 200544Z 16006KT 28/15 A3008 RMK A01 T02820150  RH  044%=      5-min Rain = 0
KCL1 200545Z 16006KT 28/15 A3008 RMK A01 T02820150  RH  044%=      5-min Rain = 0
KCL1 200546Z 16008KT 28/15 A3008 RMK A01 T02820150  RH  044%=      5-min Rain = 0
KCL1 200547Z 16006KT 28/15 A3008 RMK A01 T02830150  RH  044%=      5-min Rain = 0
KCL1 200548Z 16008KT 28/15 A3008 RMK A01 T02840150  RH  044%=      5-min Rain = 0
KCL1 200549Z 16009KT 29/15 A3008 RMK A01 T02850150  RH  044%=      5-min Rain = 0
KCL1 200550Z 16009KT 29/15 A3008 RMK A01 T02870150  RH  043%=      5-min Rain = 0
KCL1 200551Z 17010KT 29/15 A3008 RMK A01 T02870150  RH  043%=      5-min Rain = 0
KCL1 200552Z 16009KT 29/15 A3008 RMK A01 T02890150  RH  043%=      5-min Rain = 0
KCL1 200553Z 17008KT 29/15 A3008 RMK A01 T02890150  RH  043%=      5-min Rain = 0
KCL1 200554Z 16010KT 29/15 A3008 RMK A01 T02900150  RH  043%=      5-min Rain = 0
KCL1 200555Z 16008KT 29/15 A3008 RMK A01 T02900150  RH  043%=      5-min Rain = 0
KCL1 200556Z 17006KT 29/15 A3008 RMK A01 T02900151  RH  043%=      5-min Rain = 0
KCL1 200557Z 17008KT 29/15 A3009 RMK A01 T02900150  RH  043%=      5-min Rain = 0
KCL1 200558Z 16008KT 29/15 A3008 RMK A01 T02900151  RH  043%=      5-min Rain = 0
KCL1 200559Z 16009KT 29/15 A3008 RMK A01 T02890150  RH  043%=      5-min Rain = 0
KCL1 200600Z 17008KT 29/15 A3009 RMK A01 T02890150  RH  043%=      5-min Rain = 0
KCL1 200601Z 16007KT 29/15 A3009 RMK A01 T02900151  RH  043%=      5-min Rain = 0
KCL1 200602Z 16009KT 29/15 A3009 RMK A01 T02890151  RH  043%=      5-min Rain = 0
KCL1 200603Z 17008KT 29/15 A3009 RMK A01 T02890151  RH  043%=      5-min Rain = 0
KCL1 200604Z 17009KT 29/15 A3009 RMK A01 T02880150  RH  043%=      5-min Rain = 0
KCL1 200605Z 17006KT 29/15 A3009 RMK A01 T02880150  RH  043%=      5-min Rain = 0
KCL1 200606Z 16007KT 29/15 A3009 RMK A01 T02890150  RH  043%=      5-min Rain = 0
KCL1 200607Z 16008KT 29/15 A3009 RMK A01 T02890150  RH  043%=      5-min Rain = 0
KCL1 200608Z 16008KT 29/15 A3009 RMK A01 T02890151  RH  043%=      5-min Rain = 0
KCL1 200609Z 17007KT 29/15 A3009 RMK A01 T02890151  RH  043%=      5-min Rain = 0
KCL1 200610Z 17009KT 29/15 A3009 RMK A01 T02880150  RH  043%=      5-min Rain = 0
KCL1 200611Z 16009KT 29/15 A3009 RMK A01 T02880150  RH  043%=      5-min Rain = 0
KCL1 200612Z 17008KT 29/15 A3009 RMK A01 T02880150  RH  043%=      5-min Rain = 0
KCL1 200613Z 15007KT 29/15 A3009 RMK A01 T02880150  RH  043%=      5-min Rain = 0
KCL1 200614Z 16008KT 29/15 A3009 RMK A01 T02880150  RH  043%=      5-min Rain = 0
KCL1 200615Z 17009KT 29/15 A3009 RMK A01 T02880151  RH  043%=      5-min Rain = 0
KCL1 200616Z 16008KT 29/15 A3009 RMK A01 T02870150  RH  043%=      5-min Rain = 0
KCL1 200617Z 16007KT 29/15 A3009 RMK A01 T02880151  RH  043%=      5-min Rain = 0
KCL1 200618Z 16008KT 29/15 A3009 RMK A01 T02870151  RH  043%=      5-min Rain = 0
KCL1 200619Z 16008KT 29/15 A3009 RMK A01 T02870151  RH  043%=      5-min Rain = 0
KCL1 200620Z 16009KT 29/15 A3009 RMK A01 T02870150  RH  043%=      5-min Rain = 0
KCL1 200621Z 17009KT 29/15 A3009 RMK A01 T02870150  RH  043%=      5-min Rain = 0
KCL1 200622Z 15007KT 29/15 A3009 RMK A01 T02870150  RH  043%=      5-min Rain = 0
KCL1 200623Z 16008KT 29/15 A3009 RMK A01 T02870150  RH  043%=      5-min Rain = 0
KCL1 200624Z 15008KT 29/15 A3009 RMK A01 T02870150  RH  043%=      5-min Rain = 0
KCL1 200625Z 16010KT 29/15 A3009 RMK A01 T02870150  RH  043%=      5-min Rain = 0
KCL1 200626Z 16008KT 29/15 A3009 RMK A01 T02880150  RH  043%=      5-min Rain = 0
KCL1 200627Z 15007KT 29/15 A3009 RMK A01 T02880150  RH  043%=      5-min Rain = 0
KCL1 200628Z 16009KT 29/15 A3009 RMK A01 T02880150  RH  043%=      5-min Rain = 0
KCL1 200629Z 15009KT 29/15 A3009 RMK A01 T02870150  RH  043%=      5-min Rain = 0
KCL1 200630Z 16008KT 29/15 A3009 RMK A01 T02870150  RH  043%=      5-min Rain = 0
KCL1 200631Z 16008KT 29/15 A3009 RMK A01 T02880150  RH  043%=      5-min Rain = 0
KCL1 200632Z 16007KT 29/15 A3009 RMK A01 T02880150  RH  043%=      5-min Rain = 0
KCL1 200633Z 16006KT 29/15 A3009 RMK A01 T02880150  RH  043%=      5-min Rain = 0
KCL1 200634Z 17008KT 29/15 A3009 RMK A01 T02880150  RH  043%=      5-min Rain = 0
KCL1 200635Z 16007KT 29/15 A3009 RMK A01 T02870150  RH  043%=      5-min Rain = 0
KCL1 200636Z 15009KT 29/15 A3009 RMK A01 T02870150  RH  043%=      5-min Rain = 0
KCL1 200637Z 17007KT 29/15 A3009 RMK A01 T02870150  RH  043%=      5-min Rain = 0
KCL1 200638Z 17009KT 29/15 A3009 RMK A01 T02870149  RH  043%=      5-min Rain = 0
KCL1 200639Z 16005KT 29/15 A3009 RMK A01 T02880150  RH  043%=      5-min Rain = 0
KCL1 200640Z 16005KT 29/15 A3009 RMK A01 T02880150  RH  043%=      5-min Rain = 0
KCL1 200641Z 16007KT 29/15 A3009 RMK A01 T02870150  RH  043%=      5-min Rain = 0
KCL1 200642Z 16008KT 29/15 A3009 RMK A01 T02860150  RH  043%=      5-min Rain = 0
KCL1 200643Z 17007KT 29/15 A3009 RMK A01 T02860149  RH  043%=      5-min Rain = 0
KCL1 200644Z 16007KT 29/15 A3009 RMK A01 T02870149  RH  043%=      5-min Rain = 0
KCL1 200645Z 16006KT 29/15 A3009 RMK A01 T02870150  RH  043%=      5-min Rain = 0
KCL1 200646Z 17007KT 29/15 A3009 RMK A01 T02870150  RH  043%=      5-min Rain = 0
KCL1 200647Z 17009KT 29/15 A3009 RMK A01 T02870150  RH  043%=      5-min Rain = 0
KCL1 200648Z 16008KT 29/15 A3009 RMK A01 T02870149  RH  043%=      5-min Rain = 0
KCL1 200649Z 17007KT 29/15 A3009 RMK A01 T02880150  RH  043%=      5-min Rain = 0
KCL1 200650Z 17007KT 29/15 A3009 RMK A01 T02880150  RH  043%=      5-min Rain = 0
KCL1 200651Z 18007KT 29/15 A3009 RMK A01 T02880150  RH  043%=      5-min Rain = 0
KCL1 200652Z 17008KT 29/15 A3009 RMK A01 T02870150  RH  043%=      5-min Rain = 0
KCL1 200653Z 17008KT 29/15 A3009 RMK A01 T02870149  RH  043%=      5-min Rain = 0
KCL1 200654Z 17008KT 29/15 A3009 RMK A01 T02870149  RH  043%=      5-min Rain = 0
KCL1 200655Z 18007KT 29/15 A3009 RMK A01 T02870150  RH  043%=      5-min Rain = 0
KCL1 200656Z 16008KT 29/15 A3009 RMK A01 T02870150  RH  043%=      5-min Rain = 0
KCL1 200657Z 17007KT 29/15 A3009 RMK A01 T02870150  RH  043%=      5-min Rain = 0
KCL1 200658Z 18008KT 29/15 A3009 RMK A01 T02870150  RH  043%=      5-min Rain = 0
KCL1 200659Z 17009KT 29/15 A3009 RMK A01 T02870150  RH  043%=      5-min Rain = 0
KCL1 200700Z 16007KT 29/15 A3009 RMK A01 T02870149  RH  043%=      5-min Rain = 0
KCL1 200701Z 15008KT 29/15 A3009 RMK A01 T02870149  RH  043%=      5-min Rain = 0
KCL1 200702Z 17008KT 29/15 A3009 RMK A01 T02870149  RH  043%=      5-min Rain = 0
KCL1 200703Z 17007KT 29/15 A3009 RMK A01 T02880150  RH  043%=      5-min Rain = 0
KCL1 200704Z 17007KT 29/15 A3009 RMK A01 T02880150  RH  043%=      5-min Rain = 0
KCL1 200705Z 17007KT 29/15 A3009 RMK A01 T02880150  RH  043%=      5-min Rain = 0
KCL1 200706Z 16008KT 29/15 A3009 RMK A01 T02880150  RH  043%=      5-min Rain = 0
KCL1 200707Z 17007KT 29/15 A3009 RMK A01 T02880150  RH  043%=      5-min Rain = 0
KCL1 200708Z 17011G16KT 29/15 A3009 RMK A01 T02870150  RH  043%=      5-min Rain = 0
KCL1 200709Z 17010KT 29/15 A3009 RMK A01 T02870150  RH  043%=      5-min Rain = 0
KCL1 200710Z 16008KT 29/15 A3009 RMK A01 T02880150  RH  043%=      5-min Rain = 0
KCL1 200711Z 15007KT 29/15 A3009 RMK A01 T02890151  RH  043%=      5-min Rain = 0
KCL1 200712Z 16008KT 29/15 A3009 RMK A01 T02890151  RH  043%=      5-min Rain = 0
KCL1 200713Z 18009KT 29/15 A3009 RMK A01 T02890151  RH  043%=      5-min Rain = 0
KCL1 200714Z 17009KT 29/15 A3009 RMK A01 T02880150  RH  043%=      5-min Rain = 0
KCL1 200715Z 15009KT 29/15 A3009 RMK A01 T02880151  RH  043%=      5-min Rain = 0
KCL1 200716Z 16007KT 29/15 A3009 RMK A01 T02880151  RH  043%=      5-min Rain = 0
KCL1 200717Z 18008KT 29/15 A3009 RMK A01 T02880151  RH  043%=      5-min Rain = 0
KCL1 200718Z 16009KT 29/15 A3009 RMK A01 T02880150  RH  043%=      5-min Rain = 0
KCL1 200719Z 17010KT 29/15 A3009 RMK A01 T02880150  RH  043%=      5-min Rain = 0
KCL1 200720Z 19008KT 29/15 A3009 RMK A01 T02880151  RH  043%=      5-min Rain = 0
KCL1 200721Z 18008KT 29/15 A3009 RMK A01 T02870150  RH  043%=      5-min Rain = 0
KCL1 200722Z 16009G14KT 29/15 A3009 RMK A01 T02880150  RH  043%=      5-min Rain = 0
KCL1 200723Z 17008KT 29/15 A3009 RMK A01 T02880150  RH  043%=      5-min Rain = 0
KCL1 200724Z 16011KT 29/15 A3009 RMK A01 T02880150  RH  043%=      5-min Rain = 0
KCL1 200725Z 17009KT 29/15 A3009 RMK A01 T02880150  RH  043%=      5-min Rain = 0
KCL1 200726Z 17009KT 29/15 A3009 RMK A01 T02880151  RH  043%=      5-min Rain = 0
KCL1 200727Z 18006KT 29/15 A3009 RMK A01 T02870151  RH  043%=      5-min Rain = 0
KCL1 200728Z 16008KT 29/15 A3009 RMK A01 T02870150  RH  043%=      5-min Rain = 0
KCL1 200729Z 17006KT 29/15 A3009 RMK A01 T02860151  RH  044%=      5-min Rain = 0
KCL1 200730Z 16006KT 29/15 A301 RMK A01 T02850150  RH  044%=      5-min Rain = 0
KCL1 200731Z 18007KT 29/15 A301 RMK A01 T02850150  RH  044%=      5-min Rain = 0
KCL1 200732Z 17007KT 29/15 A3009 RMK A01 T02850150  RH  044%=      5-min Rain = 0
KCL1 200733Z 17007KT 29/15 A3009 RMK A01 T02850150  RH  044%=      5-min Rain = 0
KCL1 200734Z 15008KT 29/15 A3009 RMK A01 T02850150  RH  044%=      5-min Rain = 0
KCL1 200735Z 17008KT 29/15 A3009 RMK A01 T02850150  RH  044%=      5-min Rain = 0
KCL1 200736Z 17008KT 29/15 A301 RMK A01 T02860150  RH  044%=      5-min Rain = 0
KCL1 200737Z 16009KT 29/15 A3009 RMK A01 T02860151  RH  044%=      5-min Rain = 0
KCL1 200738Z 17009KT 29/15 A3009 RMK A01 T02860150  RH  044%=      5-min Rain = 0
KCL1 200739Z 18009KT 29/15 A3009 RMK A01 T02860150  RH  043%=      5-min Rain = 0
KCL1 200740Z 17007KT 29/15 A3009 RMK A01 T02860150  RH  043%=      5-min Rain = 0
KCL1 200741Z 17008KT 29/15 A3009 RMK A01 T02870151  RH  044%=      5-min Rain = 0
KCL1 200742Z 17007KT 29/15 A3009 RMK A01 T02860151  RH  044%=      5-min Rain = 0
KCL1 200743Z 17006KT 29/15 A3009 RMK A01 T02850150  RH  044%=      5-min Rain = 0
KCL1 200744Z 17008KT 29/15 A3009 RMK A01 T02850151  RH  044%=      5-min Rain = 0
KCL1 200745Z 17007KT 28/15 A3009 RMK A01 T02840150  RH  044%=      5-min Rain = 0
KCL1 200746Z 15008KT 29/15 A3009 RMK A01 T02850151  RH  044%=      5-min Rain = 0
KCL1 200747Z 16007KT 28/15 A3009 RMK A01 T02840150  RH  044%=      5-min Rain = 0
KCL1 200748Z 17007KT 28/15 A3009 RMK A01 T02840151  RH  044%=      5-min Rain = 0
KCL1 200749Z 17007KT 28/15 A3009 RMK A01 T02840151  RH  044%=      5-min Rain = 0
KCL1 200750Z 17007KT 28/15 A3009 RMK A01 T02840151  RH  044%=      5-min Rain = 0
KCL1 200751Z 15005KT 28/15 A3009 RMK A01 T02830150  RH  044%=      5-min Rain = 0
KCL1 200752Z 16007KT 28/15 A3009 RMK A01 T02830151  RH  045%=      5-min Rain = 0
KCL1 200753Z 18009KT 28/15 A3009 RMK A01 T02820150  RH  045%=      5-min Rain = 0
KCL1 200754Z 15012KT 28/15 A3009 RMK A01 T02820150  RH  045%=      5-min Rain = 0
KCL1 200755Z 17011KT 28/15 A3009 RMK A01 T02830151  RH  044%=      5-min Rain = 0
KCL1 200756Z 16009KT 28/15 A3009 RMK A01 T02840151  RH  044%=      5-min Rain = 0
KCL1 200757Z 16007KT 28/15 A3009 RMK A01 T02840151  RH  044%=      5-min Rain = 0
KCL1 200758Z 15009KT 28/15 A3009 RMK A01 T02840151  RH  044%=      5-min Rain = 0
KCL1 200759Z 16008KT 28/15 A3009 RMK A01 T02840151  RH  044%=      5-min Rain = 0
KCL1 200800Z 17008KT 28/15 A3009 RMK A01 T02830151  RH  045%=      5-min Rain = 0
KCL1 200801Z 17007KT 28/15 A3009 RMK A01 T02830151  RH  045%=      5-min Rain = 0
KCL1 200802Z 17007KT 28/15 A3009 RMK A01 T02820151  RH  045%=      5-min Rain = 0
KCL1 200803Z 17010KT 28/15 A3009 RMK A01 T02820151  RH  045%=      5-min Rain = 0
KCL1 200804Z 17007KT 28/15 A3009 RMK A01 T02820151  RH  045%=      5-min Rain = 0
KCL1 200805Z 17008KT 28/15 A3009 RMK A01 T02830151  RH  045%=      5-min Rain = 0
KCL1 200806Z 17010KT 28/15 A3009 RMK A01 T02830151  RH  045%=      5-min Rain = 0
KCL1 200807Z 15010KT 28/15 A3009 RMK A01 T02830151  RH  045%=      5-min Rain = 0
KCL1 200808Z 16013KT 28/15 A3009 RMK A01 T02830151  RH  045%=      5-min Rain = 0
KCL1 200809Z 15012KT 28/15 A3009 RMK A01 T02830151  RH  045%=      5-min Rain = 0
KCL1 200810Z 17010KT 28/15 A3009 RMK A01 T02840151  RH  044%=      5-min Rain = 0
KCL1 200811Z 16008KT 28/15 A3009 RMK A01 T02840151  RH  044%=      5-min Rain = 0
KCL1 200812Z 17011KT 28/15 A3009 RMK A01 T02840151  RH  044%=      5-min Rain = 0
KCL1 200813Z 17009KT 28/15 A3009 RMK A01 T02840151  RH  044%=      5-min Rain = 0
KCL1 200814Z 16008KT 28/15 A3009 RMK A01 T02840151  RH  044%=      5-min Rain = 0
KCL1 200815Z 16009KT 28/15 A3009 RMK A01 T02840152  RH  045%=      5-min Rain = 0
KCL1 200816Z 15008KT 28/15 A3009 RMK A01 T02830151  RH  045%=      5-min Rain = 0
KCL1 200817Z 16008KT 28/15 A3009 RMK A01 T02830152  RH  045%=      5-min Rain = 0
KCL1 200818Z 17008KT 28/15 A3009 RMK A01 T02820152  RH  045%=      5-min Rain = 0
KCL1 200819Z 18007KT 28/15 A3009 RMK A01 T02820152  RH  045%=      5-min Rain = 0
KCL1 200820Z 18008KT 28/15 A3009 RMK A01 T02810151  RH  045%=      5-min Rain = 0
KCL1 200821Z 17009KT 28/15 A3009 RMK A01 T02810152  RH  045%=      5-min Rain = 0
KCL1 200822Z 16012KT 28/15 A3009 RMK A01 T02810152  RH  045%=      5-min Rain = 0
KCL1 200823Z 16013KT 28/15 A3009 RMK A01 T02810152  RH  045%=      5-min Rain = 0
KCL1 200824Z 16012KT 28/15 A3009 RMK A01 T02820151  RH  045%=      5-min Rain = 0
KCL1 200825Z 16010KT 28/15 A3009 RMK A01 T02830152  RH  045%=      5-min Rain = 0
KCL1 200826Z 15011KT 28/15 A3009 RMK A01 T02830152  RH  045%=      5-min Rain = 0
KCL1 200827Z 17009KT 28/15 A3009 RMK A01 T02830152  RH  045%=      5-min Rain = 0
KCL1 200828Z 16010KT 28/15 A3009 RMK A01 T02830152  RH  045%=      5-min Rain = 0
KCL1 200829Z 15009KT 28/15 A3009 RMK A01 T02820152  RH  045%=      5-min Rain = 0
KCL1 200830Z 17008KT 28/15 A3009 RMK A01 T02820152  RH  045%=      5-min Rain = 0
KCL1 200831Z 17008KT 28/15 A3009 RMK A01 T02820152  RH  045%=      5-min Rain = 0
KCL1 200832Z 16007KT 28/15 A3009 RMK A01 T02810152  RH  045%=      5-min Rain = 0
KCL1 200833Z 17007KT 28/15 A3009 RMK A01 T02810152  RH  045%=      5-min Rain = 0
KCL1 200834Z 17010KT 28/15 A3009 RMK A01 T02810152  RH  045%=      5-min Rain = 0
KCL1 200835Z 17009KT 28/15 A3009 RMK A01 T02800152  RH  045%=      5-min Rain = 0
KCL1 200836Z 16010KT 28/15 A3009 RMK A01 T02810152  RH  045%=      5-min Rain = 0
KCL1 200837Z 16010KT 28/15 A3009 RMK A01 T02810152  RH  045%=      5-min Rain = 0
KCL1 200838Z 16008KT 28/15 A3009 RMK A01 T02810152  RH  045%=      5-min Rain = 0
KCL1 200839Z 17008KT 28/15 A3009 RMK A01 T02810152  RH  045%=      5-min Rain = 0
KCL1 200840Z 17010KT 28/15 A3009 RMK A01 T02810152  RH  046%=      5-min Rain = 0
KCL1 200841Z 17008KT 28/15 A3009 RMK A01 T02800152  RH  046%=      5-min Rain = 0
KCL1 200842Z 18009KT 28/15 A3009 RMK A01 T02810152  RH  045%=      5-min Rain = 0
KCL1 200843Z 17008KT 28/15 A3009 RMK A01 T02810152  RH  045%=      5-min Rain = 0
KCL1 200844Z 17008KT 28/15 A3009 RMK A01 T02810152  RH  045%=      5-min Rain = 0
KCL1 200845Z 17010KT 28/15 A3009 RMK A01 T02810152  RH  045%=      5-min Rain = 0
KCL1 200846Z 18008KT 28/15 A3009 RMK A01 T02810152  RH  045%=      5-min Rain = 0
KCL1 200847Z 17009KT 28/15 A3009 RMK A01 T02810152  RH  046%=      5-min Rain = 0
KCL1 200848Z 18011KT 28/15 A3009 RMK A01 T02810153  RH  046%=      5-min Rain = 0
KCL1 200849Z 19010KT 28/15 A3009 RMK A01 T02810152  RH  046%=      5-min Rain = 0
KCL1 200850Z 17008KT 28/15 A3009 RMK A01 T02800152  RH  046%=      5-min Rain = 0
KCL1 200851Z 17008KT 28/15 A3009 RMK A01 T02800152  RH  046%=      5-min Rain = 0
KCL1 200852Z 17010KT 28/15 A3009 RMK A01 T02800153  RH  046%=      5-min Rain = 0
KCL1 200853Z 17009KT 28/15 A3009 RMK A01 T02800153  RH  046%=      5-min Rain = 0
KCL1 200854Z 19008KT 28/15 A3009 RMK A01 T02800153  RH  046%=      5-min Rain = 0
KCL1 200855Z 18011KT 28/15 A3009 RMK A01 T02800153  RH  046%=      5-min Rain = 0
KCL1 200856Z 17010KT 28/15 A3009 RMK A01 T02800153  RH  046%=      5-min Rain = 0
KCL1 200857Z 17009KT 28/15 A3009 RMK A01 T02810153  RH  046%=      5-min Rain = 0
KCL1 200858Z 18011KT 28/15 A3009 RMK A01 T02810153  RH  046%=      5-min Rain = 0
KCL1 200859Z 18010KT 28/15 A3009 RMK A01 T02810153  RH  046%=      5-min Rain = 0
KCL1 200900Z 18010KT 28/15 A3009 RMK A01 T02810153  RH  046%=      5-min Rain = 0
KCL1 200901Z 17012KT 28/15 A3009 RMK A01 T02800153  RH  046%=      5-min Rain = 0
KCL1 200902Z 17010KT 28/15 A3009 RMK A01 T02810153  RH  046%=      5-min Rain = 0
KCL1 200903Z 18008KT 28/15 A3009 RMK A01 T02800153  RH  046%=      5-min Rain = 0
KCL1 200904Z 18009KT 28/15 A3009 RMK A01 T02790153  RH  046%=      5-min Rain = 0
KCL1 200905Z 18009KT 28/15 A3009 RMK A01 T02790153  RH  046%=      5-min Rain = 0
KCL1 200906Z 18008KT 28/15 A3009 RMK A01 T02790153  RH  046%=      5-min Rain = 0
KCL1 200907Z 17009KT 28/15 A3009 RMK A01 T02790153  RH  046%=      5-min Rain = 0
KCL1 200908Z 19009KT 28/15 A3009 RMK A01 T02780153  RH  046%=      5-min Rain = 0
KCL1 200909Z 18007KT 28/15 A3009 RMK A01 T02780153  RH  046%=      5-min Rain = 0
KCL1 200910Z 18010G15KT 28/15 A3009 RMK A01 T02780153  RH  046%=      5-min Rain = 0
KCL1 200911Z 19010KT 28/15 A3009 RMK A01 T02780153  RH  046%=      5-min Rain = 0
KCL1 200912Z 19010KT 28/15 A3009 RMK A01 T02780152  RH  046%=      5-min Rain = 0
KCL1 200913Z 19008KT 28/15 A3009 RMK A01 T02790153  RH  046%=      5-min Rain = 0
KCL1 200914Z 18009KT 28/15 A3009 RMK A01 T02790153  RH  046%=      5-min Rain = 0
KCL1 200915Z 17009KT 28/15 A3009 RMK A01 T02780153  RH  046%=      5-min Rain = 0
KCL1 200916Z 18008KT 28/15 A3009 RMK A01 T02780153  RH  047%=      5-min Rain = 0
KCL1 200917Z 18008KT 28/15 A3009 RMK A01 T02770153  RH  047%=      5-min Rain = 0
KCL1 200918Z 18009KT 28/15 A3009 RMK A01 T02770153  RH  047%=      5-min Rain = 0
KCL1 200919Z 18010G15KT 28/15 A3009 RMK A01 T02770153  RH  047%=      5-min Rain = 0
KCL1 200920Z 19012KT 28/15 A3009 RMK A01 T02770153  RH  047%=      5-min Rain = 0
KCL1 200921Z 18010KT 28/15 A3009 RMK A01 T02780153  RH  046%=      5-min Rain = 0
KCL1 200922Z 18010KT 28/15 A3009 RMK A01 T02780153  RH  046%=      5-min Rain = 0
KCL1 200923Z 17010KT 28/15 A3009 RMK A01 T02780153  RH  046%=      5-min Rain = 0
KCL1 200924Z 18010KT 28/15 A3009 RMK A01 T02780153  RH  047%=      5-min Rain = 0
KCL1 200925Z 18008KT 28/15 A3009 RMK A01 T02770153  RH  047%=      5-min Rain = 0
KCL1 200926Z 18007KT 28/15 A3009 RMK A01 T02770153  RH  047%=      5-min Rain = 0
KCL1 200927Z 19008KT 28/15 A3009 RMK A01 T02760153  RH  047%=      5-min Rain = 0
KCL1 200928Z 19008KT 28/15 A3009 RMK A01 T02750153  RH  047%=      5-min Rain = 0
KCL1 200929Z 18007KT 28/15 A3009 RMK A01 T02750153  RH  047%=      5-min Rain = 0
KCL1 200930Z 18008KT 27/15 A3009 RMK A01 T02740153  RH  047%=      5-min Rain = 0
KCL1 200931Z 17009KT 27/15 A3009 RMK A01 T02740152  RH  048%=      5-min Rain = 0
KCL1 200932Z 18009KT 27/15 A3009 RMK A01 T02740153  RH  048%=      5-min Rain = 0
KCL1 200933Z 17008KT 27/15 A3009 RMK A01 T02730153  RH  048%=      5-min Rain = 0
KCL1 200934Z 17008KT 27/15 A3009 RMK A01 T02730153  RH  048%=      5-min Rain = 0
KCL1 200935Z 18008KT 27/15 A3009 RMK A01 T02730153  RH  048%=      5-min Rain = 0
KCL1 200936Z 17010KT 27/15 A3009 RMK A01 T02730153  RH  048%=      5-min Rain = 0
KCL1 200937Z 17008KT 27/15 A3009 RMK A01 T02730153  RH  048%=      5-min Rain = 0
KCL1 200938Z 17009KT 27/15 A3009 RMK A01 T02730153  RH  048%=      5-min Rain = 0
KCL1 200939Z 18007KT 27/15 A3009 RMK A01 T02730153  RH  048%=      5-min Rain = 0
KCL1 200940Z 18007KT 27/15 A301 RMK A01 T02720153  RH  048%=      5-min Rain = 0
KCL1 200941Z 17007KT 27/15 A301 RMK A01 T02720153  RH  048%=      5-min Rain = 0
KCL1 200942Z 18007KT 27/15 A301 RMK A01 T02720153  RH  048%=      5-min Rain = 0
KCL1 200943Z 18007KT 27/15 A301 RMK A01 T02720153  RH  048%=      5-min Rain = 0
KCL1 200944Z 19007KT 27/15 A301 RMK A01 T02720153  RH  048%=      5-min Rain = 0
KCL1 200945Z 18009KT 27/15 A301 RMK A01 T02720153  RH  048%=      5-min Rain = 0
KCL1 200946Z 19009KT 27/15 A301 RMK A01 T02720153  RH  048%=      5-min Rain = 0
KCL1 200947Z 18009KT 27/15 A301 RMK A01 T02730153  RH  048%=      5-min Rain = 0
KCL1 200948Z 19007KT 27/15 A301 RMK A01 T02730154  RH  048%=      5-min Rain = 0
KCL1 200949Z 19008KT 27/15 A301 RMK A01 T02720153  RH  048%=      5-min Rain = 0
KCL1 200950Z 18007KT 27/15 A301 RMK A01 T02720153  RH  048%=      5-min Rain = 0
KCL1 200951Z 18008KT 27/15 A301 RMK A01 T02720153  RH  048%=      5-min Rain = 0
KCL1 200952Z 18006KT 27/15 A301 RMK A01 T02720153  RH  048%=      5-min Rain = 0
KCL1 200953Z 18006KT 27/15 A3009 RMK A01 T02720153  RH  048%=      5-min Rain = 0
KCL1 200954Z 18007KT 27/15 A3009 RMK A01 T02700153  RH  049%=      5-min Rain = 0
KCL1 200955Z 18008KT 27/15 A301 RMK A01 T02700153  RH  049%=      5-min Rain = 0
KCL1 200956Z 18006KT 27/15 A301 RMK A01 T02700153  RH  049%=      5-min Rain = 0
KCL1 200957Z 19006KT 27/15 A3009 RMK A01 T02700153  RH  049%=      5-min Rain = 0
KCL1 200958Z 18007KT 27/15 A3009 RMK A01 T02700153  RH  049%=      5-min Rain = 0
KCL1 200959Z 17006KT 27/15 A301 RMK A01 T02700153  RH  049%=      5-min Rain = 0
KCL1 201000Z 18008KT 27/15 A301 RMK A01 T02690153  RH  049%=      5-min Rain = 0
KCL1 201001Z 17006KT 27/15 A301 RMK A01 T02690153  RH  049%=      5-min Rain = 0
KCL1 201002Z 18006KT 27/15 A301 RMK A01 T02690153  RH  049%=      5-min Rain = 0
KCL1 201003Z 18006KT 27/15 A301 RMK A01 T02690154  RH  049%=      5-min Rain = 0
KCL1 201004Z 18005KT 27/15 A301 RMK A01 T02680153  RH  049%=      5-min Rain = 0
KCL1 201005Z 18009KT 27/15 A3009 RMK A01 T02680153  RH  049%=      5-min Rain = 0
KCL1 201006Z 18009KT 27/15 A3009 RMK A01 T02680153  RH  049%=      5-min Rain = 0
KCL1 201007Z 17007KT 27/15 A301 RMK A01 T02690153  RH  049%=      5-min Rain = 0
KCL1 201008Z 18008KT 27/15 A301 RMK A01 T02700154  RH  049%=      5-min Rain = 0
KCL1 201009Z 17009KT 27/15 A301 RMK A01 T02690153  RH  049%=      5-min Rain = 0
KCL1 201010Z 18008KT 27/15 A301 RMK A01 T02690153  RH  049%=      5-min Rain = 0
KCL1 201011Z 19010KT 27/15 A301 RMK A01 T02690153  RH  049%=      5-min Rain = 0
KCL1 201012Z 17008KT 27/15 A301 RMK A01 T02690153  RH  049%=      5-min Rain = 0
KCL1 201013Z 18009KT 27/15 A301 RMK A01 T02700153  RH  049%=      5-min Rain = 0
KCL1 201014Z 17007KT 27/15 A301 RMK A01 T02700153  RH  049%=      5-min Rain = 0
KCL1 201015Z 18007KT 27/15 A301 RMK A01 T02710153  RH  049%=      5-min Rain = 0
KCL1 201016Z 18006KT 27/15 A301 RMK A01 T02710154  RH  049%=      5-min Rain = 0
KCL1 201017Z 18008KT 27/15 A301 RMK A01 T02700154  RH  049%=      5-min Rain = 0
KCL1 201018Z 18007KT 27/15 A301 RMK A01 T02700153  RH  049%=      5-min Rain = 0
KCL1 201019Z 18008KT 27/15 A301 RMK A01 T02710154  RH  049%=      5-min Rain = 0
KCL1 201020Z 18010KT 27/15 A301 RMK A01 T02710153  RH  049%=      5-min Rain = 0
KCL1 201021Z 19009KT 27/15 A301 RMK A01 T02720154  RH  049%=      5-min Rain = 0
KCL1 201022Z 20006KT 27/15 A301 RMK A01 T02720153  RH  048%=      5-min Rain = 0
KCL1 201023Z 20005KT 27/15 A301 RMK A01 T02720153  RH  048%=      5-min Rain = 0
KCL1 201024Z 18007KT 27/15 A301 RMK A01 T02720153  RH  048%=      5-min Rain = 0
KCL1 201025Z 18006KT 27/15 A301 RMK A01 T02710153  RH  048%=      5-min Rain = 0
KCL1 201026Z 18008KT 27/15 A301 RMK A01 T02710154  RH  049%=      5-min Rain = 0
KCL1 201027Z 19006KT 27/15 A301 RMK A01 T02700154  RH  049%=      5-min Rain = 0
KCL1 201028Z 20006KT 27/15 A301 RMK A01 T02700154  RH  049%=      5-min Rain = 0
KCL1 201029Z 19005KT 27/15 A301 RMK A01 T02700154  RH  049%=      5-min Rain = 0
KCL1 201030Z 19006G11KT 27/15 A301 RMK A01 T02690154  RH  049%=      5-min Rain = 0
KCL1 201031Z 18010G15KT 27/15 A301 RMK A01 T02690153  RH  049%=      5-min Rain = 0
KCL1 201032Z 18009KT 27/15 A301 RMK A01 T02690153  RH  049%=      5-min Rain = 0
KCL1 201033Z 19010KT 27/15 A301 RMK A01 T02700153  RH  049%=      5-min Rain = 0
KCL1 201034Z 19010KT 27/15 A301 RMK A01 T02700153  RH  049%=      5-min Rain = 0
KCL1 201035Z 18010KT 27/15 A301 RMK A01 T02710154  RH  049%=      5-min Rain = 0
KCL1 201036Z 19011KT 27/15 A301 RMK A01 T02710154  RH  049%=      5-min Rain = 0
KCL1 201037Z 19010KT 27/15 A301 RMK A01 T02710154  RH  049%=      5-min Rain = 0
KCL1 201038Z 20009KT 27/15 A301 RMK A01 T02710154  RH  049%=      5-min Rain = 0
KCL1 201039Z 19009KT 27/15 A301 RMK A01 T02710154  RH  049%=      5-min Rain = 0
KCL1 201040Z 19009KT 27/15 A301 RMK A01 T02710154  RH  048%=      5-min Rain = 0
KCL1 201041Z 19010KT 27/15 A301 RMK A01 T02710154  RH  049%=      5-min Rain = 0
KCL1 201042Z 19009KT 27/15 A301 RMK A01 T02710154  RH  049%=      5-min Rain = 0
KCL1 201043Z 18010KT 27/15 A301 RMK A01 T02710154  RH  049%=      5-min Rain = 0
KCL1 201044Z 17008KT 27/15 A301 RMK A01 T02710154  RH  049%=      5-min Rain = 0
KCL1 201045Z 18010KT 27/15 A301 RMK A01 T02710154  RH  049%=      5-min Rain = 0
KCL1 201046Z 17010KT 27/15 A301 RMK A01 T02700154  RH  049%=      5-min Rain = 0
KCL1 201047Z 17009KT 27/15 A301 RMK A01 T02700154  RH  049%=      5-min Rain = 0
KCL1 201048Z 18008KT 27/15 A301 RMK A01 T02700154  RH  049%=      5-min Rain = 0
KCL1 201049Z 17007KT 27/15 A301 RMK A01 T02690154  RH  049%=      5-min Rain = 0
KCL1 201050Z 17007KT 27/15 A301 RMK A01 T02690154  RH  049%=      5-min Rain = 0
KCL1 201051Z 18007KT 27/15 A301 RMK A01 T02690154  RH  049%=      5-min Rain = 0
KCL1 201052Z 18008KT 27/15 A301 RMK A01 T02680154  RH  050%=      5-min Rain = 0
KCL1 201053Z 18008KT 27/15 A301 RMK A01 T02670154  RH  050%=      5-min Rain = 0
KCL1 201054Z 18008KT 27/15 A301 RMK A01 T02670153  RH  050%=      5-min Rain = 0
KCL1 201055Z 18010KT 27/15 A301 RMK A01 T02670153  RH  050%=      5-min Rain = 0
KCL1 201056Z 18008KT 27/15 A301 RMK A01 T02670153  RH  049%=      5-min Rain = 0
KCL1 201057Z 17008KT 27/15 A301 RMK A01 T02680153  RH  049%=      5-min Rain = 0
KCL1 201058Z 18008KT 27/15 A301 RMK A01 T02680153  RH  049%=      5-min Rain = 0
KCL1 201059Z 18007KT 27/15 A301 RMK A01 T02680153  RH  049%=      5-min Rain = 0
KCL1 201100Z 18009KT 27/15 A301 RMK A01 T02680153  RH  049%=      5-min Rain = 0
KCL1 201101Z 18008KT 27/15 A301 RMK A01 T02680153  RH  049%=      5-min Rain = 0
KCL1 201102Z 18007KT 27/15 A301 RMK A01 T02690153  RH  049%=      5-min Rain = 0
KCL1 201103Z 19011KT 27/15 A301 RMK A01 T02680153  RH  049%=      5-min Rain = 0
KCL1 201104Z 18011KT 27/15 A301 RMK A01 T02680152  RH  049%=      5-min Rain = 0
KCL1 201105Z 18009KT 27/15 A301 RMK A01 T02690152  RH  049%=      5-min Rain = 0
KCL1 201106Z 18008KT 27/15 A301 RMK A01 T02690153  RH  049%=      5-min Rain = 0
KCL1 201107Z 18008KT 27/15 A301 RMK A01 T02690153  RH  049%=      5-min Rain = 0
KCL1 201108Z 18008KT 27/15 A301 RMK A01 T02680153  RH  049%=      5-min Rain = 0
KCL1 201109Z 17009KT 27/15 A301 RMK A01 T02670153  RH  049%=      5-min Rain = 0
KCL1 201110Z 18011KT 27/15 A301 RMK A01 T02670153  RH  049%=      5-min Rain = 0
KCL1 201111Z 18009KT 27/15 A301 RMK A01 T02670152  RH  049%=      5-min Rain = 0
KCL1 201112Z 18008KT 27/15 A301 RMK A01 T02670152  RH  049%=      5-min Rain = 0
KCL1 201113Z 18006KT 27/15 A301 RMK A01 T02670153  RH  049%=      5-min Rain = 0
KCL1 201114Z 17008KT 27/15 A301 RMK A01 T02660153  RH  050%=      5-min Rain = 0
KCL1 201115Z 17008KT 27/15 A301 RMK A01 T02660153  RH  050%=      5-min Rain = 0
KCL1 201116Z 17008KT 27/15 A301 RMK A01 T02650152  RH  050%=      5-min Rain = 0
KCL1 201117Z 17008KT 27/15 A301 RMK A01 T02650152  RH  050%=      5-min Rain = 0
KCL1 201118Z 18010KT 27/15 A301 RMK A01 T02650152  RH  050%=      5-min Rain = 0
KCL1 201119Z 18007KT 27/15 A301 RMK A01 T02660152  RH  050%=      5-min Rain = 0
KCL1 201120Z 18009KT 27/15 A301 RMK A01 T02660151  RH  049%=      5-min Rain = 0
KCL1 201121Z 19010KT 27/15 A301 RMK A01 T02670151  RH  049%=      5-min Rain = 0
KCL1 201122Z 19010KT 27/15 A301 RMK A01 T02680151  RH  049%=      5-min Rain = 0
KCL1 201123Z 18009KT 27/15 A301 RMK A01 T02680151  RH  049%=      5-min Rain = 0
KCL1 201124Z 19011KT 27/15 A301 RMK A01 T02680150  RH  048%=      5-min Rain = 0
KCL1 201125Z 19008KT 27/15 A301 RMK A01 T02690150  RH  048%=      5-min Rain = 0
KCL1 201126Z 18009KT 27/15 A301 RMK A01 T02690150  RH  048%=      5-min Rain = 0
KCL1 201127Z 19008KT 27/15 A301 RMK A01 T02690151  RH  049%=      5-min Rain = 0
KCL1 201128Z 18010KT 27/15 A301 RMK A01 T02680152  RH  049%=      5-min Rain = 0
KCL1 201129Z 18009KT 27/15 A301 RMK A01 T02680151  RH  049%=      5-min Rain = 0
KCL1 201130Z 19006KT 27/15 A301 RMK A01 T02670151  RH  049%=      5-min Rain = 0
KCL1 201131Z 18009KT 27/15 A301 RMK A01 T02670152  RH  049%=      5-min Rain = 0
KCL1 201132Z 19008KT 27/15 A301 RMK A01 T02660151  RH  049%=      5-min Rain = 0
KCL1 201133Z 19010KT 27/15 A301 RMK A01 T02660151  RH  049%=      5-min Rain = 0
KCL1 201134Z 19009G14KT 27/15 A301 RMK A01 T02660151  RH  049%=      5-min Rain = 0
KCL1 201135Z 20008KT 27/15 A301 RMK A01 T02660151  RH  049%=      5-min Rain = 0
KCL1 201136Z 18010KT 27/15 A301 RMK A01 T02670150  RH  049%=      5-min Rain = 0
KCL1 201137Z 19009KT 27/15 A301 RMK A01 T02670151  RH  049%=      5-min Rain = 0
KCL1 201138Z 21008KT 27/15 A301 RMK A01 T02670152  RH  049%=      5-min Rain = 0
KCL1 201139Z 20006KT 27/15 A3011 RMK A01 T02670151  RH  049%=      5-min Rain = 0
KCL1 201140Z 20007KT 27/15 A3011 RMK A01 T02670152  RH  049%=      5-min Rain = 0
KCL1 201141Z 19004KT 27/15 A3011 RMK A01 T02660151  RH  049%=      5-min Rain = 0
KCL1 201142Z 19005KT 27/15 A3011 RMK A01 T02660151  RH  049%=      5-min Rain = 0
KCL1 201143Z 19008KT 27/15 A3011 RMK A01 T02660152  RH  050%=      5-min Rain = 0
KCL1 201144Z 19006KT 27/15 A3011 RMK A01 T02650152  RH  050%=      5-min Rain = 0
KCL1 201145Z 20007KT 27/15 A3011 RMK A01 T02650151  RH  050%=      5-min Rain = 0
KCL1 201146Z 19006KT 27/15 A3011 RMK A01 T02650151  RH  049%=      5-min Rain = 0
KCL1 201147Z 19008KT 27/15 A3011 RMK A01 T02650150  RH  049%=      5-min Rain = 0
KCL1 201148Z 20005KT 27/15 A3011 RMK A01 T02650150  RH  049%=      5-min Rain = 0
KCL1 201149Z 19005KT 27/15 A3011 RMK A01 T02650151  RH  049%=      5-min Rain = 0
KCL1 201150Z 19005KT 27/15 A3011 RMK A01 T02650150  RH  049%=      5-min Rain = 0
KCL1 201151Z 20005KT 27/15 A3011 RMK A01 T02650151  RH  049%=      5-min Rain = 0
KCL1 201152Z 20006KT 26/15 A3011 RMK A01 T02640150  RH  050%=      5-min Rain = 0
KCL1 201153Z 21007KT 26/15 A3011 RMK A01 T02640150  RH  050%=      5-min Rain = 0
KCL1 201154Z 20007KT 26/15 A3011 RMK A01 T02640150  RH  049%=      5-min Rain = 0
KCL1 201155Z 20007KT 26/15 A3011 RMK A01 T02640149  RH  049%=      5-min Rain = 0
KCL1 201156Z 19007KT 27/15 A3011 RMK A01 T02650150  RH  049%=      5-min Rain = 0
KCL1 201157Z 21006KT 27/15 A3011 RMK A01 T02650149  RH  049%=      5-min Rain = 0
KCL1 201158Z 20007KT 27/15 A3011 RMK A01 T02660149  RH  049%=      5-min Rain = 0
KCL1 201159Z 21006KT 27/15 A3011 RMK A01 T02660149  RH  049%=      5-min Rain = 0
KCL1 201200Z 20006KT 27/15 A3011 RMK A01 T02660149  RH  049%=      5-min Rain = 0
KCL1 201201Z 21007KT 27/15 A3011 RMK A01 T02660149  RH  049%=      5-min Rain = 0
KCL1 201202Z 22006KT 27/15 A3011 RMK A01 T02660149  RH  049%=      5-min Rain = 0
KCL1 201203Z 23005KT 27/15 A3011 RMK A01 T02650149  RH  049%=      5-min Rain = 0
KCL1 201204Z 24004KT 27/15 A3011 RMK A01 T02650149  RH  049%=      5-min Rain = 0
KCL1 201205Z 24004KT 27/15 A3011 RMK A01 T02650150  RH  049%=      5-min Rain = 0
KCL1 201206Z 24005KT 26/15 A3011 RMK A01 T02640151  RH  050%=      5-min Rain = 0
KCL1 201207Z 24005KT 26/15 A3011 RMK A01 T02630150  RH  050%=      5-min Rain = 0
KCL1 201208Z 24005KT 26/15 A3011 RMK A01 T02620150  RH  050%=      5-min Rain = 0
KCL1 201209Z 24005KT 26/15 A3011 RMK A01 T02620151  RH  050%=      5-min Rain = 0
KCL1 201210Z 23006KT 26/15 A3011 RMK A01 T02620150  RH  050%=      5-min Rain = 0
KCL1 201211Z 22006KT 26/15 A3011 RMK A01 T02620150  RH  050%=      5-min Rain = 0
KCL1 201212Z 22006KT 26/15 A3011 RMK A01 T02620149  RH  050%=      5-min Rain = 0
KCL1 201213Z 23005KT 26/15 A3011 RMK A01 T02630149  RH  050%=      5-min Rain = 0
KCL1 201214Z 22004KT 26/15 A3011 RMK A01 T02630150  RH  050%=      5-min Rain = 0
KCL1 201215Z 21005KT 26/15 A3011 RMK A01 T02630150  RH  050%=      5-min Rain = 0
KCL1 201216Z 22005KT 26/15 A3011 RMK A01 T02630150  RH  050%=      5-min Rain = 0
KCL1 201217Z 21005KT 26/15 A3011 RMK A01 T02630150  RH  050%=      5-min Rain = 0
KCL1 201218Z 21006KT 26/15 A3011 RMK A01 T02620150  RH  050%=      5-min Rain = 0
KCL1 201219Z 22005KT 26/15 A3011 RMK A01 T02630149  RH  050%=      5-min Rain = 0
KCL1 201220Z 21006KT 26/15 A3011 RMK A01 T02630148  RH  049%=      5-min Rain = 0
KCL1 201221Z 22006KT 26/15 A3011 RMK A01 T02640147  RH  049%=      5-min Rain = 0
KCL1 201222Z 22005KT 27/15 A3011 RMK A01 T02650148  RH  049%=      5-min Rain = 0
KCL1 201223Z 21008KT 27/15 A3011 RMK A01 T02650148  RH  048%=      5-min Rain = 0
KCL1 201224Z 22005KT 27/15 A3011 RMK A01 T02660147  RH  048%=      5-min Rain = 0
KCL1 201225Z 22006KT 27/15 A3011 RMK A01 T02660148  RH  048%=      5-min Rain = 0
KCL1 201226Z 22005KT 27/15 A3011 RMK A01 T02660147  RH  048%=      5-min Rain = 0
KCL1 201227Z 22004KT 27/15 A3011 RMK A01 T02660148  RH  048%=      5-min Rain = 0
KCL1 201228Z 21006KT 27/15 A3011 RMK A01 T02660148  RH  048%=      5-min Rain = 0
KCL1 201229Z 22007KT 27/15 A3011 RMK A01 T02660147  RH  048%=      5-min Rain = 0
KCL1 201230Z 22007KT 27/15 A3011 RMK A01 T02660147  RH  048%=      5-min Rain = 0
KCL1 201231Z 22007KT 27/15 A3011 RMK A01 T02660147  RH  048%=      5-min Rain = 0
KCL1 201232Z 22007KT 27/15 A3011 RMK A01 T02670146  RH  048%=      5-min Rain = 0
KCL1 201233Z 21008KT 27/15 A3011 RMK A01 T02670146  RH  047%=      5-min Rain = 0
KCL1 201234Z 23006KT 27/15 A3011 RMK A01 T02680146  RH  047%=      5-min Rain = 0
KCL1 201235Z 23008KT 27/15 A3012 RMK A01 T02690146  RH  047%=      5-min Rain = 0
KCL1 201236Z 22009KT 27/15 A3012 RMK A01 T02690146  RH  047%=      5-min Rain = 0
KCL1 201237Z 23006KT 27/15 A3012 RMK A01 T02700146  RH  047%=      5-min Rain = 0
KCL1 201238Z 23008KT 27/15 A3012 RMK A01 T02700146  RH  047%=      5-min Rain = 0
KCL1 201239Z 22008KT 27/15 A3012 RMK A01 T02700145  RH  046%=      5-min Rain = 0
KCL1 201240Z 23008KT 27/15 A3012 RMK A01 T02700146  RH  046%=      5-min Rain = 0
KCL1 201241Z 23007KT 27/15 A3012 RMK A01 T02710146  RH  047%=      5-min Rain = 0
KCL1 201242Z 23010KT 27/15 A3012 RMK A01 T02700146  RH  046%=      5-min Rain = 0
KCL1 201243Z 23008KT 27/15 A3012 RMK A01 T02700146  RH  046%=      5-min Rain = 0
KCL1 201244Z 23007KT 27/15 A3012 RMK A01 T02700147  RH  047%=      5-min Rain = 0
KCL1 201245Z 23007KT 27/15 A3012 RMK A01 T02700147  RH  047%=      5-min Rain = 0
KCL1 201246Z 22005KT 27/15 A3012 RMK A01 T02700147  RH  047%=      5-min Rain = 0
KCL1 201247Z 24007KT 27/15 A3012 RMK A01 T02700147  RH  047%=      5-min Rain = 0
KCL1 201248Z 23008KT 27/15 A3012 RMK A01 T02690146  RH  047%=      5-min Rain = 0
KCL1 201249Z 22008KT 27/15 A3012 RMK A01 T02690145  RH  047%=      5-min Rain = 0
KCL1 201250Z 23006KT 27/15 A3012 RMK A01 T02690146  RH  047%=      5-min Rain = 0
KCL1 201251Z 22008KT 27/15 A3012 RMK A01 T02700146  RH  047%=      5-min Rain = 0
KCL1 201252Z 23008KT 27/15 A3012 RMK A01 T02700145  RH  046%=      5-min Rain = 0
KCL1 201253Z 23007KT 27/15 A3012 RMK A01 T02700146  RH  047%=      5-min Rain = 0
KCL1 201254Z 24008KT 27/15 A3012 RMK A01 T02700147  RH  047%=      5-min Rain = 0
KCL1 201255Z 22007KT 27/15 A3012 RMK A01 T02700147  RH  047%=      5-min Rain = 0
KCL1 201256Z 22008KT 27/15 A3012 RMK A01 T02700146  RH  047%=      5-min Rain = 0
KCL1 201257Z 22011KT 27/15 A3012 RMK A01 T02700146  RH  046%=      5-min Rain = 0
KCL1 201258Z 22010KT 27/15 A3012 RMK A01 T02710146  RH  046%=      5-min Rain = 0
KCL1 201259Z 22008KT 27/15 A3012 RMK A01 T02710146  RH  046%=      5-min Rain = 0
KCL1 201300Z 22008KT 27/15 A3012 RMK A01 T02710146  RH  046%=      5-min Rain = 0
KCL1 201301Z 23007KT 27/15 A3012 RMK A01 T02710146  RH  046%=      5-min Rain = 0
KCL1 201302Z 22008KT 27/15 A3012 RMK A01 T02710146  RH  046%=      5-min Rain = 0
KCL1 201303Z 22009KT 27/15 A3012 RMK A01 T02710146  RH  046%=      5-min Rain = 0
KCL1 201304Z 21008KT 27/15 A3012 RMK A01 T02710146  RH  046%=      5-min Rain = 0
KCL1 201305Z 23007G12KT 27/15 A3012 RMK A01 T02710146  RH  046%=      5-min Rain = 0
KCL1 201306Z 23008KT 27/15 A3012 RMK A01 T02720146  RH  046%=      5-min Rain = 0
KCL1 201307Z 22010KT 27/15 A3012 RMK A01 T02710146  RH  046%=      5-min Rain = 0
KCL1 201308Z 22007KT 27/15 A3012 RMK A01 T02720146  RH  046%=      5-min Rain = 0
KCL1 201309Z 23008KT 27/15 A3012 RMK A01 T02720146  RH  046%=      5-min Rain = 0
KCL1 201310Z 22009KT 27/15 A3012 RMK A01 T02720146  RH  046%=      5-min Rain = 0
KCL1 201311Z 23007KT 27/15 A3012 RMK A01 T02720146  RH  046%=      5-min Rain = 0
KCL1 201312Z 22008KT 27/15 A3012 RMK A01 T02720146  RH  046%=      5-min Rain = 0
KCL1 201313Z 22009KT 27/15 A3012 RMK A01 T02720146  RH  046%=      5-min Rain = 0
KCL1 201314Z 23007KT 27/15 A3012 RMK A01 T02720146  RH  046%=      5-min Rain = 0
KCL1 201315Z 24008KT 27/15 A3012 RMK A01 T02730146  RH  046%=      5-min Rain = 0
KCL1 201316Z 23007KT 27/15 A3012 RMK A01 T02730146  RH  046%=      5-min Rain = 0
KCL1 201317Z 23007KT 27/15 A3013 RMK A01 T02730146  RH  046%=      5-min Rain = 0
KCL1 201318Z 24006KT 27/15 A3013 RMK A01 T02730146  RH  046%=      5-min Rain = 0
KCL1 201319Z 25007KT 27/15 A3013 RMK A01 T02730146  RH  046%=      5-min Rain = 0
KCL1 201320Z 25007KT 27/15 A3013 RMK A01 T02730146  RH  046%=      5-min Rain = 0
KCL1 201321Z 24007KT 27/15 A3013 RMK A01 T02730147  RH  046%=      5-min Rain = 0
KCL1 201322Z 25006KT 27/15 A3013 RMK A01 T02730147  RH  046%=      5-min Rain = 0
KCL1 201323Z 25005KT 27/15 A3013 RMK A01 T02730147  RH  046%=      5-min Rain = 0
KCL1 201324Z 25007KT 27/15 A3013 RMK A01 T02730148  RH  047%=      5-min Rain = 0
KCL1 201325Z 25008KT 27/15 A3013 RMK A01 T02730148  RH  046%=      5-min Rain = 0
KCL1 201326Z 24007KT 27/15 A3013 RMK A01 T02730147  RH  046%=      5-min Rain = 0
KCL1 201327Z 23007KT 27/15 A3013 RMK A01 T02730147  RH  046%=      5-min Rain = 0
KCL1 201328Z 23007KT 27/15 A3013 RMK A01 T02730148  RH  046%=      5-min Rain = 0
KCL1 201329Z 23008KT 27/15 A3013 RMK A01 T02730148  RH  046%=      5-min Rain = 0
KCL1 201330Z 24005KT 27/15 A3013 RMK A01 T02730148  RH  047%=      5-min Rain = 0
KCL1 201331Z 24008KT 27/15 A3013 RMK A01 T02720149  RH  047%=      5-min Rain = 0
KCL1 201332Z 23010KT 27/15 A3013 RMK A01 T02710149  RH  047%=      5-min Rain = 0
KCL1 201333Z 24009KT 27/15 A3013 RMK A01 T02710148  RH  047%=      5-min Rain = 0
KCL1 201334Z 24008KT 27/15 A3013 RMK A01 T02700148  RH  047%=      5-min Rain = 0
KCL1 201335Z 25009KT 27/15 A3013 RMK A01 T02690148  RH  047%=      5-min Rain = 0
KCL1 201336Z 23007KT 27/15 A3013 RMK A01 T02690148  RH  048%=      5-min Rain = 0
KCL1 201337Z 24008KT 27/15 A3013 RMK A01 T02690149  RH  048%=      5-min Rain = 0
KCL1 201338Z 23007KT 27/15 A3013 RMK A01 T02680148  RH  048%=      5-min Rain = 0
KCL1 201339Z 23006KT 27/15 A3013 RMK A01 T02690149  RH  048%=      5-min Rain = 0
KCL1 201340Z 24006KT 27/15 A3013 RMK A01 T02690149  RH  048%=      5-min Rain = 0
KCL1 201341Z 24008KT 27/15 A3013 RMK A01 T02680149  RH  048%=      5-min Rain = 0
KCL1 201342Z 23009KT 27/15 A3013 RMK A01 T02690149  RH  048%=      5-min Rain = 0
KCL1 201343Z 24008KT 27/15 A3013 RMK A01 T02690149  RH  048%=      5-min Rain = 0
KCL1 201344Z 24007KT 27/15 A3013 RMK A01 T02690150  RH  048%=      5-min Rain = 0
KCL1 201345Z 22007KT 27/15 A3013 RMK A01 T02690150  RH  048%=      5-min Rain = 0
KCL1 201346Z 23007KT 27/15 A3013 RMK A01 T02680150  RH  048%=      5-min Rain = 0
KCL1 201347Z 23008KT 27/15 A3013 RMK A01 T02690149  RH  048%=      5-min Rain = 0
KCL1 201348Z 24008KT 27/15 A3013 RMK A01 T02680149  RH  048%=      5-min Rain = 0
KCL1 201349Z 25008KT 27/15 A3013 RMK A01 T02690150  RH  048%=      5-min Rain = 0
KCL1 201350Z 25007KT 27/15 A3013 RMK A01 T02690150  RH  048%=      5-min Rain = 0
KCL1 201351Z 23007KT 27/15 A3013 RMK A01 T02690149  RH  048%=      5-min Rain = 0
KCL1 201352Z 23005KT 27/15 A3013 RMK A01 T02690150  RH  048%=      5-min Rain = 0
KCL1 201353Z 24006KT 27/15 A3013 RMK A01 T02690150  RH  048%=      5-min Rain = 0
KCL1 201354Z 24005KT 27/15 A3013 RMK A01 T02690150  RH  048%=      5-min Rain = 0
KCL1 201355Z 24005KT 27/15 A3013 RMK A01 T02690151  RH  048%=      5-min Rain = 0
KCL1 201356Z 23006KT 27/15 A3013 RMK A01 T02700151  RH  048%=      5-min Rain = 0
KCL1 201357Z 23007KT 27/15 A3013 RMK A01 T02700149  RH  048%=      5-min Rain = 0
KCL1 201358Z 23005KT 27/15 A3013 RMK A01 T02700150  RH  048%=      5-min Rain = 0
KCL1 201359Z 25004KT 27/15 A3013 RMK A01 T02710151  RH  048%=      5-min Rain = 0
KCL1 201400Z 24005KT 27/15 A3013 RMK A01 T02720152  RH  048%=      5-min Rain = 0
KCL1 201401Z 24006KT 27/15 A3013 RMK A01 T02730152  RH  048%=      5-min Rain = 0
KCL1 201402Z 24006KT 27/15 A3013 RMK A01 T02730151  RH  047%=      5-min Rain = 0
KCL1 201403Z 24006KT 27/15 A3013 RMK A01 T02740151  RH  047%=      5-min Rain = 0
KCL1 201404Z 23006KT 28/15 A3013 RMK A01 T02750151  RH  047%=      5-min Rain = 0
KCL1 201405Z 24006KT 28/15 A3013 RMK A01 T02750152  RH  047%=      5-min Rain = 0
KCL1 201406Z 24006KT 28/15 A3013 RMK A01 T02760151  RH  046%=      5-min Rain = 0
KCL1 201407Z 25005KT 28/15 A3013 RMK A01 T02760152  RH  047%=      5-min Rain = 0
KCL1 201408Z 22004KT 28/15 A3013 RMK A01 T02770152  RH  046%=      5-min Rain = 0
KCL1 201409Z 24005KT 28/15 A3013 RMK A01 T02790153  RH  046%=      5-min Rain = 0
KCL1 201410Z 23005KT 28/15 A3013 RMK A01 T02800152  RH  046%=      5-min Rain = 0
KCL1 201411Z 22005KT 28/15 A3013 RMK A01 T02800153  RH  046%=      5-min Rain = 0
KCL1 201412Z 24005KT 28/15 A3013 RMK A01 T02810154  RH  046%=      5-min Rain = 0
KCL1 201413Z 23005KT 28/15 A3013 RMK A01 T02820152  RH  045%=      5-min Rain = 0
KCL1 201414Z 23006KT 28/15 A3013 RMK A01 T02820152  RH  045%=      5-min Rain = 0
KCL1 201415Z 22006KT 28/15 A3014 RMK A01 T02830153  RH  045%=      5-min Rain = 0
KCL1 201416Z 22008KT 28/15 A3014 RMK A01 T02830152  RH  045%=      5-min Rain = 0
KCL1 201417Z 23006KT 28/15 A3014 RMK A01 T02830152  RH  045%=      5-min Rain = 0
KCL1 201418Z 23007KT 28/15 A3014 RMK A01 T02830152  RH  045%=      5-min Rain = 0
KCL1 201419Z 23007KT 28/15 A3014 RMK A01 T02840152  RH  045%=      5-min Rain = 0
KCL1 201420Z 22007KT 28/15 A3014 RMK A01 T02840151  RH  044%=      5-min Rain = 0
KCL1 201421Z 22006KT 29/15 A3014 RMK A01 T02850153  RH  045%=      5-min Rain = 0
KCL1 201422Z 22005KT 29/15 A3014 RMK A01 T02860154  RH  045%=      5-min Rain = 0
KCL1 201423Z 22007KT 29/15 A3014 RMK A01 T02880154  RH  044%=      5-min Rain = 0
KCL1 201424Z 22006KT 29/15 A3014 RMK A01 T02880154  RH  044%=      5-min Rain = 0
KCL1 201425Z 22008KT 29/15 A3014 RMK A01 T02880153  RH  044%=      5-min Rain = 0
KCL1 201426Z 20007KT 29/15 A3014 RMK A01 T02880153  RH  044%=      5-min Rain = 0
KCL1 201427Z 20007KT 29/15 A3014 RMK A01 T02880153  RH  044%=      5-min Rain = 0
KCL1 201428Z 19008KT 29/15 A3014 RMK A01 T02890152  RH  043%=      5-min Rain = 0
KCL1 201429Z 21008KT 29/15 A3014 RMK A01 T02890151  RH  043%=      5-min Rain = 0
KCL1 201430Z 23008KT 29/15 A3014 RMK A01 T02900152  RH  043%=      5-min Rain = 0
KCL1 201431Z 21007KT 29/15 A3014 RMK A01 T02900152  RH  043%=      5-min Rain = 0
KCL1 201432Z 21006KT 29/15 A3014 RMK A01 T02900153  RH  043%=      5-min Rain = 0
KCL1 201433Z 21006KT 29/15 A3014 RMK A01 T02900153  RH  043%=      5-min Rain = 0
KCL1 201434Z 21007KT 29/15 A3014 RMK A01 T02900152  RH  043%=      5-min Rain = 0
KCL1 201435Z 21007KT 29/15 A3014 RMK A01 T02910151  RH  043%=      5-min Rain = 0
KCL1 201436Z 21007KT 29/15 A3014 RMK A01 T02920152  RH  042%=      5-min Rain = 0
KCL1 201437Z 20010KT 29/15 A3014 RMK A01 T02940152  RH  042%=      5-min Rain = 0
KCL1 201438Z 21010KT 30/15 A3014 RMK A01 T02950150  RH  041%=      5-min Rain = 0
KCL1 201439Z 23007KT 30/15 A3014 RMK A01 T02960151  RH  041%=      5-min Rain = 0
KCL1 201440Z 22008KT 30/15 A3014 RMK A01 T02980152  RH  041%=      5-min Rain = 0
KCL1 201441Z 20010KT 30/15 A3014 RMK A01 T02990150  RH  040%=      5-min Rain = 0
KCL1 201442Z 21007KT 30/15 A3014 RMK A01 T02980151  RH  041%=      5-min Rain = 0
KCL1 201443Z 25007KT 30/15 A3014 RMK A01 T02990153  RH  041%=      5-min Rain = 0
KCL1 201444Z 23006KT 30/15 A3014 RMK A01 T03000151  RH  041%=      5-min Rain = 0
KCL1 201445Z 22006KT 30/15 A3014 RMK A01 T03000152  RH  041%=      5-min Rain = 0
KCL1 201446Z 24010KT 30/15 A3014 RMK A01 T03000150  RH  040%=      5-min Rain = 0
KCL1 201447Z 24009KT 30/15 A3014 RMK A01 T02990150  RH  041%=      5-min Rain = 0
KCL1 201448Z 24008KT 30/15 A3014 RMK A01 T02980151  RH  041%=      5-min Rain = 0
KCL1 201449Z 24007KT 30/15 A3014 RMK A01 T02970152  RH  041%=      5-min Rain = 0
KCL1 201450Z 25007KT 30/15 A3014 RMK A01 T02970151  RH  041%=      5-min Rain = 0
KCL1 201451Z 22005KT 30/15 A3014 RMK A01 T02980153  RH  041%=      5-min Rain = 0
KCL1 201452Z 22010KT 30/15 A3014 RMK A01 T02990151  RH  041%=      5-min Rain = 0
KCL1 201453Z 21010KT 30/15 A3014 RMK A01 T02990152  RH  041%=      5-min Rain = 0
KCL1 201454Z 22006KT 30/15 A3014 RMK A01 T02980151  RH  041%=      5-min Rain = 0
KCL1 201455Z 26006KT 30/15 A3014 RMK A01 T02980154  RH  042%=      5-min Rain = 0
KCL1 201456Z 25010KT 30/15 A3014 RMK A01 T03000153  RH  041%=      5-min Rain = 0
KCL1 201457Z 24009KT 30/15 A3014 RMK A01 T03010152  RH  041%=      5-min Rain = 0
KCL1 201458Z 22009KT 30/15 A3014 RMK A01 T03010152  RH  040%=      5-min Rain = 0
KCL1 201459Z 22008KT 30/15 A3014 RMK A01 T02990152  RH  041%=      5-min Rain = 0
KCL1 201500Z 23007KT 30/15 A3014 RMK A01 T02990153  RH  041%=      5-min Rain = 0
KCL1 201501Z 23008G13KT 30/15 A3014 RMK A01 T03000151  RH  041%=      5-min Rain = 0
KCL1 201502Z 24011KT 30/15 A3014 RMK A01 T02990153  RH  041%=      5-min Rain = 0
KCL1 201503Z 24008KT 30/15 A3014 RMK A01 T03000151  RH  041%=      5-min Rain = 0
KCL1 201504Z 22008KT 30/15 A3014 RMK A01 T03000152  RH  041%=      5-min Rain = 0
KCL1 201505Z 22008KT 30/15 A3014 RMK A01 T03000152  RH  041%=      5-min Rain = 0
KCL1 201506Z 25008KT 30/15 A3014 RMK A01 T03000154  RH  041%=      5-min Rain = 0
KCL1 201507Z 22007KT 30/15 A3014 RMK A01 T03010153  RH  041%=      5-min Rain = 0
KCL1 201508Z 22007KT 30/15 A3014 RMK A01 T03010154  RH  041%=      5-min Rain = 0
KCL1 201509Z 22009KT 30/15 A3014 RMK A01 T03030153  RH  040%=      5-min Rain = 0
KCL1 201510Z 24009KT 30/15 A3014 RMK A01 T03020153  RH  040%=      5-min Rain = 0
KCL1 201511Z 26013G18KT 30/15 A3014 RMK A01 T03020153  RH  041%=      5-min Rain = 0
KCL1 201512Z 26013KT 30/15 A3014 RMK A01 T03000152  RH  041%=      5-min Rain = 0
KCL1 201513Z 28011KT 30/15 A3014 RMK A01 T02980152  RH  041%=      5-min Rain = 0
KCL1 201514Z 24012KT 30/15 A3014 RMK A01 T02970154  RH  042%=      5-min Rain = 0
KCL1 201515Z 24008KT 30/15 A3014 RMK A01 T02980153  RH  041%=      5-min Rain = 0
KCL1 201516Z 24008G14KT 30/15 A3014 RMK A01 T02990154  RH  041%=      5-min Rain = 0
KCL1 201517Z 25009G14KT 30/15 A3014 RMK A01 T03000153  RH  041%=      5-min Rain = 0
KCL1 201518Z 24008KT 30/15 A3014 RMK A01 T03000153  RH  041%=      5-min Rain = 0
KCL1 201519Z 25015KT 30/15 A3014 RMK A01 T03010154  RH  041%=      5-min Rain = 0
KCL1 201520Z 25012KT 30/15 A3014 RMK A01 T03020153  RH  041%=      5-min Rain = 0
KCL1 201521Z 25011KT 30/15 A3014 RMK A01 T03030154  RH  041%=      5-min Rain = 0
KCL1 201522Z 24009G15KT 30/16 A3014 RMK A01 T03040155  RH  040%=      5-min Rain = 0
KCL1 201523Z 25011G17KT 31/15 A3014 RMK A01 T03050153  RH  040%=      5-min Rain = 0
KCL1 201524Z 24011G16KT 31/15 A3014 RMK A01 T03060153  RH  040%=      5-min Rain = 0
KCL1 201525Z 24012KT 31/15 A3014 RMK A01 T03060153  RH  040%=      5-min Rain = 0
KCL1 201526Z 25011KT 31/15 A3014 RMK A01 T03050152  RH  040%=      5-min Rain = 0
KCL1 201527Z 25015G20KT 30/15 A3014 RMK A01 T03040152  RH  040%=      5-min Rain = 0
KCL1 201528Z 25013G19KT 30/15 A3014 RMK A01 T03030152  RH  040%=      5-min Rain = 0
KCL1 201529Z 25012KT 30/15 A3014 RMK A01 T03040152  RH  040%=      5-min Rain = 0
KCL1 201530Z 24010G16KT 31/15 A3014 RMK A01 T03050151  RH  039%=      5-min Rain = 0
KCL1 201531Z 24013KT 31/15 A3014 RMK A01 T03060151  RH  039%=      5-min Rain = 0
KCL1 201532Z 24013KT 31/15 A3014 RMK A01 T03060150  RH  039%=      5-min Rain = 0
KCL1 201533Z 24009KT 31/15 A3014 RMK A01 T03060150  RH  039%=      5-min Rain = 0
KCL1 201534Z 23008KT 31/15 A3014 RMK A01 T03060151  RH  039%=      5-min Rain = 0
KCL1 201535Z 24007KT 31/15 A3014 RMK A01 T03080153  RH  039%=      5-min Rain = 0
KCL1 201536Z 24009G14KT 31/15 A3014 RMK A01 T03100152  RH  039%=      5-min Rain = 0
KCL1 201537Z 24012KT 31/15 A3014 RMK A01 T03110151  RH  038%=      5-min Rain = 0
KCL1 201538Z 23011KT 31/15 A3014 RMK A01 T03110149  RH  038%=      5-min Rain = 0
KCL1 201539Z 21006G13KT 31/15 A3014 RMK A01 T03100149  RH  038%=      5-min Rain = 0
KCL1 201540Z 21008KT 31/15 A3014 RMK A01 T03090151  RH  038%=      5-min Rain = 0
KCL1 201541Z 22010KT 31/15 A3015 RMK A01 T03100151  RH  038%=      5-min Rain = 0
KCL1 201542Z 23010KT 31/15 A3015 RMK A01 T03120150  RH  038%=      5-min Rain = 0
KCL1 201543Z 22009KT 31/15 A3015 RMK A01 T03120151  RH  038%=      5-min Rain = 0
KCL1 201544Z 21009G14KT 31/15 A3014 RMK A01 T03130151  RH  037%=      5-min Rain = 0
KCL1 201545Z 22008KT 31/15 A3015 RMK A01 T03140152  RH  038%=      5-min Rain = 0
KCL1 201546Z 22011KT 32/15 A3015 RMK A01 T03150151  RH  037%=      5-min Rain = 0
KCL1 201547Z 23012KT 32/15 A3015 RMK A01 T03160150  RH  037%=      5-min Rain = 0
KCL1 201548Z 23010KT 32/15 A3015 RMK A01 T03160150  RH  037%=      5-min Rain = 0
KCL1 201549Z 22012KT 32/15 A3015 RMK A01 T03160150  RH  037%=      5-min Rain = 0
KCL1 201550Z 23010KT 32/15 A3015 RMK A01 T03160150  RH  037%=      5-min Rain = 0
KCL1 201551Z 23013KT 32/15 A3015 RMK A01 T03160150  RH  037%=      5-min Rain = 0
KCL1 201552Z 23011KT 32/15 A3015 RMK A01 T03160148  RH  036%=      5-min Rain = 0
KCL1 201553Z 23007KT 31/15 A3015 RMK A01 T03130149  RH  037%=      5-min Rain = 0
KCL1 201554Z 26006KT 31/15 A3015 RMK A01 T03130151  RH  037%=      5-min Rain = 0
KCL1 201555Z 28008KT 32/15 A3015 RMK A01 T03150151  RH  037%=      5-min Rain = 0
KCL1 201556Z 27010KT 32/15 A3015 RMK A01 T03160149  RH  036%=      5-min Rain = 0
KCL1 201557Z 27009KT 32/15 A3015 RMK A01 T03170150  RH  036%=      5-min Rain = 0
KCL1 201558Z 25010KT 32/15 A3015 RMK A01 T03180150  RH  036%=      5-min Rain = 0
KCL1 201559Z 22011KT 32/15 A3015 RMK A01 T03180149  RH  036%=      5-min Rain = 0
KCL1 201600Z 25009KT 32/15 A3015 RMK A01 T03180150  RH  036%=      5-min Rain = 0
KCL1 201601Z 25008KT 32/15 A3015 RMK A01 T03180149  RH  036%=      5-min Rain = 0
KCL1 201602Z 23010KT 32/15 A3015 RMK A01 T03180149  RH  036%=      5-min Rain = 0
KCL1 201603Z 24011KT 32/15 A3015 RMK A01 T03190149  RH  036%=      5-min Rain = 0
KCL1 201604Z 23006KT 32/15 A3015 RMK A01 T03170149  RH  036%=      5-min Rain = 0
KCL1 201605Z 25008KT 32/15 A3015 RMK A01 T03170150  RH  037%=      5-min Rain = 0
KCL1 201606Z 22010KT 32/15 A3015 RMK A01 T03170148  RH  036%=      5-min Rain = 0
KCL1 201607Z 25008KT 32/15 A3015 RMK A01 T03160149  RH  036%=      5-min Rain = 0
KCL1 201608Z 25005KT 32/15 A3015 RMK A01 T03160148  RH  036%=      5-min Rain = 0
KCL1 201609Z 24009KT 32/15 A3015 RMK A01 T03150148  RH  036%=      5-min Rain = 0
KCL1 201610Z 26006KT 31/15 A3015 RMK A01 T03140149  RH  037%=      5-min Rain = 0
KCL1 201611Z 21006G11KT 32/15 A3015 RMK A01 T03150150  RH  037%=      5-min Rain = 0
KCL1 201612Z 23006KT 32/15 A3015 RMK A01 T03170151  RH  037%=      5-min Rain = 0
KCL1 201613Z 21010KT 32/15 A3015 RMK A01 T03200150  RH  036%=      5-min Rain = 0
KCL1 201614Z 21006KT 32/15 A3015 RMK A01 T03210150  RH  036%=      5-min Rain = 0
KCL1 201615Z 24006KT 32/15 A3015 RMK A01 T03210150  RH  036%=      5-min Rain = 0
KCL1 201616Z 23007KT 32/15 A3015 RMK A01 T03210151  RH  036%=      5-min Rain = 0
KCL1 201617Z 24008KT 32/15 A3015 RMK A01 T03220151  RH  036%=      5-min Rain = 0
KCL1 201618Z 24009KT 32/15 A3015 RMK A01 T03240150  RH  035%=      5-min Rain = 0
KCL1 201619Z 23008KT 32/15 A3015 RMK A01 T03240151  RH  035%=      5-min Rain = 0
KCL1 201620Z 22011KT 32/15 A3015 RMK A01 T03230151  RH  035%=      5-min Rain = 0
KCL1 201621Z 21008KT 32/15 A3015 RMK A01 T03230150  RH  035%=      5-min Rain = 0
KCL1 201622Z 24009KT 32/15 A3015 RMK A01 T03230151  RH  036%=      5-min Rain = 0
KCL1 201623Z 22011KT 32/15 A3015 RMK A01 T03230152  RH  036%=      5-min Rain = 0
KCL1 201624Z 23013KT 32/15 A3015 RMK A01 T03240151  RH  035%=      5-min Rain = 0
KCL1 201625Z 25009G15KT 32/15 A3015 RMK A01 T03230152  RH  036%=      5-min Rain = 0
KCL1 201626Z 25007KT 32/15 A3015 RMK A01 T03230152  RH  036%=      5-min Rain = 0
KCL1 201627Z 24006KT 32/15 A3015 RMK A01 T03240153  RH  036%=      5-min Rain = 0
KCL1 201628Z 21008KT 33/15 A3015 RMK A01 T03270153  RH  035%=      5-min Rain = 0
KCL1 201629Z 22007KT 33/15 A3015 RMK A01 T03280153  RH  035%=      5-min Rain = 0
KCL1 201630Z 23008KT 33/15 A3015 RMK A01 T03280153  RH  035%=      5-min Rain = 0
KCL1 201631Z 23007G14KT 33/15 A3015 RMK A01 T03290152  RH  035%=      5-min Rain = 0
KCL1 201632Z 22009KT 33/15 A3015 RMK A01 T03290153  RH  035%=      5-min Rain = 0
KCL1 201633Z 22006KT 33/15 A3015 RMK A01 T03280151  RH  035%=      5-min Rain = 0
KCL1 201634Z 24009KT 33/15 A3014 RMK A01 T03270153  RH  035%=      5-min Rain = 0
KCL1 201635Z 24011KT 33/15 A3014 RMK A01 T03300153  RH  035%=      5-min Rain = 0
KCL1 201636Z 23010KT 33/15 A3014 RMK A01 T03320153  RH  034%=      5-min Rain = 0
KCL1 201637Z 24008KT 33/15 A3014 RMK A01 T03320153  RH  034%=      5-min Rain = 0
KCL1 201638Z 25008KT 33/15 A3014 RMK A01 T03320153  RH  034%=      5-min Rain = 0
KCL1 201639Z 26008KT 33/15 A3014 RMK A01 T03320154  RH  034%=      5-min Rain = 0
KCL1 201640Z 26008KT 33/15 A3014 RMK A01 T03320152  RH  034%=      5-min Rain = 0
KCL1 201641Z 24006KT 33/15 A3014 RMK A01 T03320150  RH  033%=      5-min Rain = 0
KCL1 201642Z 23010KT 33/15 A3014 RMK A01 T03300152  RH  034%=      5-min Rain = 0
KCL1 201643Z 26008KT 33/15 A3014 RMK A01 T03300152  RH  034%=      5-min Rain = 0
KCL1 201644Z 27011KT 33/15 A3014 RMK A01 T03310150  RH  034%=      5-min Rain = 0
KCL1 201645Z 25011KT 33/15 A3014 RMK A01 T03280150  RH  034%=      5-min Rain = 0
KCL1 201646Z 27011KT 33/15 A3014 RMK A01 T03280151  RH  035%=      5-min Rain = 0
KCL1 201647Z 25009KT 33/15 A3015 RMK A01 T03290151  RH  034%=      5-min Rain = 0
KCL1 201648Z 25011KT 33/15 A3015 RMK A01 T03290150  RH  034%=      5-min Rain = 0
KCL1 201649Z 26010KT 33/15 A3015 RMK A01 T03290151  RH  034%=      5-min Rain = 0
KCL1 201650Z 26011KT 33/15 A3014 RMK A01 T03290151  RH  034%=      5-min Rain = 0
KCL1 201651Z 28007KT 33/15 A3015 RMK A01 T03300151  RH  034%=      5-min Rain = 0
KCL1 201652Z 26007KT 33/15 A3015 RMK A01 T03290153  RH  035%=      5-min Rain = 0
KCL1 201653Z 25007KT 33/15 A3014 RMK A01 T03300151  RH  034%=      5-min Rain = 0
KCL1 201654Z 25005KT 33/15 A3014 RMK A01 T03300153  RH  034%=      5-min Rain = 0
KCL1 201655Z 26011G16KT 33/15 A3014 RMK A01 T03310152  RH  034%=      5-min Rain = 0
KCL1 201656Z 28006KT 33/16 A3014 RMK A01 T03320155  RH  035%=      5-min Rain = 0
KCL1 201657Z 31006KT 33/16 A3014 RMK A01 T03320156  RH  035%=      5-min Rain = 0
KCL1 201658Z 27008G16KT 33/16 A3014 RMK A01 T03340156  RH  034%=      5-min Rain = 0
KCL1 201659Z 29012KT 34/15 A3014 RMK A01 T03350153  RH  034%=      5-min Rain = 0
KCL1 201700Z 26012KT 33/15 A3014 RMK A01 T03320153  RH  034%=      5-min Rain = 0
KCL1 201701Z 26011KT 33/15 A3014 RMK A01 T03300152  RH  034%=      5-min Rain = 0
KCL1 201702Z 27011KT 33/15 A3015 RMK A01 T03280151  RH  035%=      5-min Rain = 0
KCL1 201703Z 27013KT 33/15 A3015 RMK A01 T03270153  RH  035%=      5-min Rain = 0
KCL1 201704Z 27012KT 33/15 A3015 RMK A01 T03260151  RH  035%=      5-min Rain = 0
KCL1 201705Z 27009KT 32/15 A3015 RMK A01 T03240152  RH  036%=      5-min Rain = 0
KCL1 201706Z 27010KT 32/15 A3015 RMK A01 T03230153  RH  036%=      5-min Rain = 0
KCL1 201707Z 29009KT 32/16 A3015 RMK A01 T03240155  RH  036%=      5-min Rain = 0
KCL1 201708Z 29010KT 33/16 A3015 RMK A01 T03250156  RH  036%=      5-min Rain = 0
KCL1 201709Z 30009KT 33/16 A3015 RMK A01 T03270156  RH  036%=      5-min Rain = 0
KCL1 201710Z 28011KT 33/15 A3015 RMK A01 T03290154  RH  035%=      5-min Rain = 0
KCL1 201711Z 25010KT 33/16 A3015 RMK A01 T03280155  RH  035%=      5-min Rain = 0
KCL1 201712Z 26011KT 33/15 A3015 RMK A01 T03280154  RH  035%=      5-min Rain = 0
KCL1 201713Z 28007KT 33/15 A3015 RMK A01 T03270152  RH  035%=      5-min Rain = 0
KCL1 201714Z 27008KT 33/15 A3015 RMK A01 T03250154  RH  036%=      5-min Rain = 0
KCL1 201715Z 23010KT 33/15 A3015 RMK A01 T03250152  RH  035%=      5-min Rain = 0
KCL1 201716Z 22011KT 32/15 A3015 RMK A01 T03240150  RH  035%=      5-min Rain = 0
KCL1 201717Z 22009KT 32/15 A3015 RMK A01 T03230151  RH  035%=      5-min Rain = 0
KCL1 201718Z 23007KT 32/15 A3015 RMK A01 T03230151  RH  036%=      5-min Rain = 0
KCL1 201719Z 24005KT 32/15 A3015 RMK A01 T03230152  RH  036%=      5-min Rain = 0
KCL1 201720Z 22006KT 32/15 A3014 RMK A01 T03240151  RH  035%=      5-min Rain = 0
KCL1 201721Z 23004KT 32/15 A3014 RMK A01 T03240151  RH  035%=      5-min Rain = 0
KCL1 201722Z 22009KT 33/15 A3014 RMK A01 T03250152  RH  035%=      5-min Rain = 0
KCL1 201723Z 22010KT 33/15 A3014 RMK A01 T03250150  RH  035%=      5-min Rain = 0
KCL1 201724Z 22006KT 32/15 A3014 RMK A01 T03240149  RH  035%=      5-min Rain = 0
KCL1 201725Z 26007KT 32/15 A3014 RMK A01 T03230150  RH  035%=      5-min Rain = 0
KCL1 201726Z 28007KT 32/15 A3014 RMK A01 T03230150  RH  035%=      5-min Rain = 0
KCL1 201727Z 27008KT 32/15 A3014 RMK A01 T03230152  RH  036%=      5-min Rain = 0
KCL1 201728Z 26006KT 32/15 A3014 RMK A01 T03240152  RH  035%=      5-min Rain = 0
KCL1 201729Z 27004KT 33/16 A3014 RMK A01 T03260155  RH  036%=      5-min Rain = 0
KCL1 201730Z 26007KT 33/16 A3014 RMK A01 T03290156  RH  035%=      5-min Rain = 0
KCL1 201731Z 23005KT 33/15 A3014 RMK A01 T03310153  RH  034%=      5-min Rain = 0
KCL1 201732Z 20006KT 33/15 A3014 RMK A01 T03320152  RH  034%=      5-min Rain = 0
KCL1 201733Z 19005KT 33/15 A3014 RMK A01 T03320154  RH  034%=      5-min Rain = 0
KCL1 201734Z 23004KT 33/16 A3014 RMK A01 T03320155  RH  035%=      5-min Rain = 0
KCL1 201735Z 26003KT 33/16 A3014 RMK A01 T03330155  RH  035%=      5-min Rain = 0
KCL1 201736Z 23007KT 33/16 A3014 RMK A01 T03330155  RH  034%=      5-min Rain = 0
KCL1 201737Z 24007KT 33/15 A3014 RMK A01 T03330154  RH  034%=      5-min Rain = 0
KCL1 201738Z 25007KT 33/15 A3014 RMK A01 T03330154  RH  034%=      5-min Rain = 0
KCL1 201739Z 26007KT 33/15 A3014 RMK A01 T03320153  RH  034%=      5-min Rain = 0
KCL1 201740Z 26005KT 33/15 A3014 RMK A01 T03290151  RH  034%=      5-min Rain = 0
KCL1 201741Z 21004KT 33/15 A3014 RMK A01 T03270152  RH  035%=      5-min Rain = 0
KCL1 201742Z 24010KT 33/15 A3014 RMK A01 T03270152  RH  035%=      5-min Rain = 0
KCL1 201743Z 24009KT 33/15 A3014 RMK A01 T03270152  RH  035%=      5-min Rain = 0
KCL1 201744Z 26009KT 33/15 A3014 RMK A01 T03270151  RH  035%=      5-min Rain = 0
KCL1 201745Z 27006KT 33/15 A3014 RMK A01 T03270151  RH  035%=      5-min Rain = 0
KCL1 201746Z 26007KT 33/15 A3014 RMK A01 T03270152  RH  035%=      5-min Rain = 0
KCL1 201747Z 27005KT 33/15 A3014 RMK A01 T03310153  RH  034%=      5-min Rain = 0
KCL1 201748Z 26006KT 33/15 A3014 RMK A01 T03340152  RH  033%=      5-min Rain = 0
KCL1 201749Z 22006KT 33/15 A3014 RMK A01 T03340152  RH  034%=      5-min Rain = 0
KCL1 201750Z 22005KT 34/15 A3014 RMK A01 T03350153  RH  034%=      5-min Rain = 0
KCL1 201751Z 25007KT 33/15 A3014 RMK A01 T03330150  RH  033%=      5-min Rain = 0
KCL1 201752Z 24008KT 33/15 A3014 RMK A01 T03310149  RH  033%=      5-min Rain = 0
KCL1 201753Z 22008KT 33/15 A3014 RMK A01 T03310148  RH  033%=      5-min Rain = 0
KCL1 201754Z 25007KT 33/15 A3014 RMK A01 T03310148  RH  033%=      5-min Rain = 0
KCL1 201755Z 26010KT 33/15 A3014 RMK A01 T03300148  RH  033%=      5-min Rain = 0
KCL1 201756Z 25009KT 33/15 A3013 RMK A01 T03300148  RH  033%=      5-min Rain = 0
KCL1 201757Z 26009KT 33/15 A3013 RMK A01 T03300150  RH  034%=      5-min Rain = 0
KCL1 201758Z 25007KT 33/15 A3013 RMK A01 T03310150  RH  034%=      5-min Rain = 0
KCL1 201759Z 26007KT 33/15 A3013 RMK A01 T03330151  RH  034%=      5-min Rain = 0
KCL1 201800Z 25007KT 34/15 A3013 RMK A01 T03360154  RH  033%=      5-min Rain = 0
KCL1 201801Z 26009KT 34/15 A3013 RMK A01 T03410152  RH  032%=      5-min Rain = 0
KCL1 201802Z 25007KT 34/15 A3013 RMK A01 T03410152  RH  032%=      5-min Rain = 0
KCL1 201803Z 26010KT 34/15 A3013 RMK A01 T03410151  RH  032%=      5-min Rain = 0
KCL1 201804Z 26008KT 34/15 A3013 RMK A01 T03410151  RH  032%=      5-min Rain = 0
KCL1 201805Z 28004KT 34/15 A3013 RMK A01 T03400154  RH  033%=      5-min Rain = 0
KCL1 201806Z 28005KT 34/16 A3013 RMK A01 T03410155  RH  033%=      5-min Rain = 0
KCL1 201807Z 27006KT 34/16 A3013 RMK A01 T03440156  RH  032%=      5-min Rain = 0
KCL1 201808Z 25009KT 35/15 A3013 RMK A01 T03460154  RH  032%=      5-min Rain = 0
KCL1 201809Z 26007KT 35/15 A3013 RMK A01 T03460151  RH  031%=      5-min Rain = 0
KCL1 201810Z 24008KT 35/15 A3013 RMK A01 T03450151  RH  031%=      5-min Rain = 0
KCL1 201811Z 26008KT 35/15 A3013 RMK A01 T03460151  RH  031%=      5-min Rain = 0
KCL1 201812Z 24010KT 35/15 A3013 RMK A01 T03460152  RH  031%=      5-min Rain = 0
KCL1 201813Z 24009KT 35/15 A3013 RMK A01 T03470151  RH  031%=      5-min Rain = 0
KCL1 201814Z 24009KT 35/15 A3013 RMK A01 T03460149  RH  031%=      5-min Rain = 0
KCL1 201815Z 24007KT 35/15 A3013 RMK A01 T03460150  RH  031%=      5-min Rain = 0
KCL1 201816Z 24006KT 35/15 A3012 RMK A01 T03480148  RH  030%=      5-min Rain = 0
KCL1 201817Z 26008G14KT 35/15 A3012 RMK A01 T03470151  RH  031%=      5-min Rain = 0
KCL1 201818Z 25013KT 35/15 A3012 RMK A01 T03470150  RH  031%=      5-min Rain = 0
KCL1 201819Z 24010KT 35/15 A3012 RMK A01 T03480151  RH  031%=      5-min Rain = 0
KCL1 201820Z 26003KT 35/15 A3012 RMK A01 T03490148  RH  030%=      5-min Rain = 0
KCL1 201821Z 26004KT 35/15 A3012 RMK A01 T03480151  RH  031%=      5-min Rain = 0
KCL1 201822Z 21007KT 35/15 A3012 RMK A01 T03490151  RH  031%=      5-min Rain = 0
KCL1 201823Z 20006KT 35/15 A3012 RMK A01 T03500148  RH  030%=      5-min Rain = 0
KCL1 201824Z 21004KT 35/15 A3012 RMK A01 T03510148  RH  030%=      5-min Rain = 0
KCL1 201825Z 22008KT 35/15 A3012 RMK A01 T03490147  RH  030%=      5-min Rain = 0
KCL1 201826Z 23009KT 35/15 A3012 RMK A01 T03470149  RH  031%=      5-min Rain = 0
KCL1 201827Z 24010KT 35/15 A3012 RMK A01 T03480148  RH  030%=      5-min Rain = 0
KCL1 201828Z 25009KT 35/15 A3012 RMK A01 T03470148  RH  030%=      5-min Rain = 0
KCL1 201829Z 24010KT 35/15 A3012 RMK A01 T03460148  RH  031%=      5-min Rain = 0
KCL1 201830Z 24010KT 35/15 A3012 RMK A01 T03460148  RH  031%=      5-min Rain = 0
KCL1 201831Z 24009KT 35/15 A3012 RMK A01 T03460148  RH  031%=      5-min Rain = 0
KCL1 201832Z 25008KT 34/15 A3012 RMK A01 T03430147  RH  031%=      5-min Rain = 0
KCL1 201833Z 25007KT 34/15 A3012 RMK A01 T03410148  RH  031%=      5-min Rain = 0
KCL1 201834Z 24005KT 34/15 A3012 RMK A01 T03400150  RH  032%=      5-min Rain = 0
KCL1 201835Z 23006KT 34/15 A3012 RMK A01 T03420149  RH  031%=      5-min Rain = 0
KCL1 201836Z 25005KT 34/15 A3012 RMK A01 T03420148  RH  031%=      5-min Rain = 0
KCL1 201837Z 26007KT 34/15 A3012 RMK A01 T03420149  RH  031%=      5-min Rain = 0
KCL1 201838Z 24007KT 34/15 A3012 RMK A01 T03440147  RH  031%=      5-min Rain = 0
KCL1 201839Z 24009KT 35/15 A3012 RMK A01 T03460145  RH  030%=      5-min Rain = 0
KCL1 201840Z 24008KT 35/14 A3012 RMK A01 T03460144  RH  030%=      5-min Rain = 0
KCL1 201841Z 22009KT 35/15 A3012 RMK A01 T03470147  RH  030%=      5-min Rain = 0
KCL1 201842Z 22008KT 35/15 A3012 RMK A01 T03460147  RH  030%=      5-min Rain = 0
KCL1 201843Z 22005KT 35/15 A3012 RMK A01 T03450146  RH  030%=      5-min Rain = 0
KCL1 201844Z 23006KT 34/15 A3012 RMK A01 T03440146  RH  031%=      5-min Rain = 0
KCL1 201845Z 23009KT 34/15 A3012 RMK A01 T03440146  RH  030%=      5-min Rain = 0
KCL1 201846Z 23006KT 34/15 A3012 RMK A01 T03420145  RH  031%=      5-min Rain = 0
KCL1 201847Z 25005KT 34/15 A3012 RMK A01 T03410147  RH  031%=      5-min Rain = 0
KCL1 201848Z 25006KT 34/15 A3011 RMK A01 T03410147  RH  031%=      5-min Rain = 0
KCL1 201849Z 27009KT 34/15 A3011 RMK A01 T03410146  RH  031%=      5-min Rain = 0
KCL1 201850Z 23007KT 34/15 A3011 RMK A01 T03410146  RH  031%=      5-min Rain = 0
KCL1 201851Z 23011KT 34/15 A3011 RMK A01 T03420146  RH  031%=      5-min Rain = 0
KCL1 201852Z 22008KT 34/15 A3011 RMK A01 T03420146  RH  031%=      5-min Rain = 0
KCL1 201853Z 20006KT 34/15 A3011 RMK A01 T03420145  RH  031%=      5-min Rain = 0
KCL1 201854Z 21009KT 34/15 A3011 RMK A01 T03410148  RH  031%=      5-min Rain = 0
KCL1 201855Z 27008KT 34/15 A3011 RMK A01 T03420147  RH  031%=      5-min Rain = 0
KCL1 201856Z 24006KT 34/15 A3011 RMK A01 T03430146  RH  031%=      5-min Rain = 0
KCL1 201857Z 24007KT 34/15 A3011 RMK A01 T03420145  RH  031%=      5-min Rain = 0
KCL1 201858Z 23006KT 34/14 A3011 RMK A01 T03420144  RH  030%=      5-min Rain = 0
KCL1 201859Z 24006KT 34/14 A3011 RMK A01 T03440144  RH  030%=      5-min Rain = 0
KCL1 201900Z 25005KT 35/14 A3011 RMK A01 T03450143  RH  030%=      5-min Rain = 0
KCL1 201901Z 24007KT 34/14 A3011 RMK A01 T03440142  RH  030%=      5-min Rain = 0
KCL1 201902Z 25008KT 34/14 A3011 RMK A01 T03440142  RH  030%=      5-min Rain = 0
KCL1 201903Z 26008KT 34/14 A3011 RMK A01 T03440142  RH  030%=      5-min Rain = 0
KCL1 201904Z 25008KT 34/14 A3011 RMK A01 T03440142  RH  030%=      5-min Rain = 0
KCL1 201905Z 24007KT 34/14 A3011 RMK A01 T03430141  RH  030%=      5-min Rain = 0
KCL1 201906Z 26008KT 34/14 A3011 RMK A01 T03430141  RH  030%=      5-min Rain = 0
KCL1 201907Z 26008KT 34/14 A3011 RMK A01 T03420140  RH  030%=      5-min Rain = 0
KCL1 201908Z 26006KT 34/14 A3011 RMK A01 T03410139  RH  030%=      5-min Rain = 0
KCL1 201909Z 23006KT 34/14 A3011 RMK A01 T03400139  RH  030%=      5-min Rain = 0
KCL1 201910Z 25006KT 34/14 A3011 RMK A01 T03400139  RH  030%=      5-min Rain = 0
KCL1 201911Z 25005KT 34/14 A301 RMK A01 T03410142  RH  030%=      5-min Rain = 0
KCL1 201912Z 21008KT 34/14 A3011 RMK A01 T03430143  RH  030%=      5-min Rain = 0
KCL1 201913Z 23010KT 34/14 A3011 RMK A01 T03440143  RH  030%=      5-min Rain = 0
KCL1 201914Z 22011KT 35/14 A3011 RMK A01 T03450143  RH  030%=      5-min Rain = 0
KCL1 201915Z 21008KT 34/14 A301 RMK A01 T03430143  RH  030%=      5-min Rain = 0
KCL1 201916Z 22007KT 34/14 A301 RMK A01 T03430143  RH  030%=      5-min Rain = 0
KCL1 201917Z 22008KT 34/14 A301 RMK A01 T03420142  RH  030%=      5-min Rain = 0
KCL1 201918Z 21007KT 34/14 A301 RMK A01 T03420144  RH  030%=      5-min Rain = 0
KCL1 201919Z 23006KT 34/14 A301 RMK A01 T03430143  RH  030%=      5-min Rain = 0
KCL1 201920Z 25005KT 34/14 A301 RMK A01 T03430144  RH  030%=      5-min Rain = 0
KCL1 201921Z 22008G13KT 35/15 A301 RMK A01 T03450146  RH  030%=      5-min Rain = 0
KCL1 201922Z 19008KT 35/14 A301 RMK A01 T03470143  RH  029%=      5-min Rain = 0
KCL1 201923Z 19005KT 35/14 A301 RMK A01 T03450143  RH  030%=      5-min Rain = 0
KCL1 201924Z 18007KT 35/15 A301 RMK A01 T03450148  RH  031%=      5-min Rain = 0
KCL1 201925Z 19006KT 35/14 A301 RMK A01 T03460144  RH  030%=      5-min Rain = 0
KCL1 201926Z 22006KT 35/15 A301 RMK A01 T03460146  RH  030%=      5-min Rain = 0
KCL1 201927Z 24008KT 35/14 A301 RMK A01 T03480144  RH  030%=      5-min Rain = 0
KCL1 201928Z 23004KT 35/14 A301 RMK A01 T03490142  RH  029%=      5-min Rain = 0
KCL1 201929Z 24004KT 35/14 A301 RMK A01 T03480141  RH  029%=      5-min Rain = 0
KCL1 201930Z 24005KT 35/14 A301 RMK A01 T03470143  RH  030%=      5-min Rain = 0
KCL1 201931Z 21005KT 35/14 A301 RMK A01 T03470144  RH  030%=      5-min Rain = 0
KCL1 201932Z 19007KT 35/15 A301 RMK A01 T03490147  RH  030%=      5-min Rain = 0
KCL1 201933Z 18008KT 35/15 A301 RMK A01 T03510146  RH  029%=      5-min Rain = 0
KCL1 201934Z 18007KT 35/15 A301 RMK A01 T03530146  RH  029%=      5-min Rain = 0
KCL1 201935Z 20008KT 35/15 A301 RMK A01 T03530145  RH  029%=      5-min Rain = 0
KCL1 201936Z 20007KT 35/14 A301 RMK A01 T03530144  RH  029%=      5-min Rain = 0
KCL1 201937Z 19006KT 35/15 A301 RMK A01 T03510145  RH  029%=      5-min Rain = 0
KCL1 201938Z 19004KT 35/14 A301 RMK A01 T03510143  RH  029%=      5-min Rain = 0
KCL1 201939Z 17003KT 35/14 A3009 RMK A01 T03490142  RH  029%=      5-min Rain = 0
KCL1 201940Z 17005KT 35/15 A3009 RMK A01 T03480145  RH  030%=      5-min Rain = 0
KCL1 201941Z 19007KT 35/15 A3009 RMK A01 T03490146  RH  030%=      5-min Rain = 0
KCL1 201942Z 18008KT 35/15 A3009 RMK A01 T03520147  RH  029%=      5-min Rain = 0
KCL1 201943Z 18009KT 35/15 A3009 RMK A01 T03530145  RH  029%=      5-min Rain = 0
KCL1 201944Z 18006KT 35/14 A3009 RMK A01 T03520143  RH  029%=      5-min Rain = 0
KCL1 201945Z 19011KT 35/15 A3009 RMK A01 T03510146  RH  029%=      5-min Rain = 0
KCL1 201946Z 18009KT 35/14 A3009 RMK A01 T03520139  RH  028%=      5-min Rain = 0
KCL1 201947Z 19010KT 35/14 A3009 RMK A01 T03520140  RH  028%=      5-min Rain = 0
KCL1 201948Z 19008KT 35/14 A3009 RMK A01 T03510138  RH  028%=      5-min Rain = 0
KCL1 201949Z 20007KT 35/14 A3009 RMK A01 T03500141  RH  028%=      5-min Rain = 0
KCL1 201950Z 18011KT 35/14 A3009 RMK A01 T03510142  RH  029%=      5-min Rain = 0
KCL1 201951Z 19010KT 35/14 A3009 RMK A01 T03520140  RH  028%=      5-min Rain = 0
KCL1 201952Z 19009KT 35/14 A3009 RMK A01 T03500140  RH  028%=      5-min Rain = 0
KCL1 201953Z 19008KT 35/14 A3009 RMK A01 T03490142  RH  029%=      5-min Rain = 0
KCL1 201954Z 19008KT 35/14 A3009 RMK A01 T03490144  RH  029%=      5-min Rain = 0
KCL1 201955Z 18009KT 35/15 A3009 RMK A01 T03500146  RH  030%=      5-min Rain = 0
KCL1 201956Z 19009KT 35/15 A3009 RMK A01 T03510145  RH  029%=      5-min Rain = 0
KCL1 201957Z 21008KT 35/15 A3009 RMK A01 T03510145  RH  029%=      5-min Rain = 0
KCL1 201958Z 18009KT 35/14 A3009 RMK A01 T03510144  RH  029%=      5-min Rain = 0
KCL1 201959Z 19009G14KT 35/15 A3009 RMK A01 T03520146  RH  029%=      5-min Rain = 0
KCL1 202000Z 19008KT 35/15 A3009 RMK A01 T03520147  RH  029%=      5-min Rain = 0
KCL1 202001Z 19011KT 35/15 A3009 RMK A01 T03520145  RH  029%=      5-min Rain = 0
KCL1 202002Z 19008KT 35/14 A3009 RMK A01 T03520142  RH  029%=      5-min Rain = 0
KCL1 202003Z 19009KT 35/14 A3009 RMK A01 T03520143  RH  029%=      5-min Rain = 0
KCL1 202004Z 19010KT 35/14 A3009 RMK A01 T03520143  RH  029%=      5-min Rain = 0
KCL1 202005Z 19010KT 35/14 A3009 RMK A01 T03510144  RH  029%=      5-min Rain = 0
KCL1 202006Z 19008KT 35/15 A3009 RMK A01 T03510145  RH  029%=      5-min Rain = 0
KCL1 202007Z 21007KT 35/15 A3009 RMK A01 T03510147  RH  030%=      5-min Rain = 0
KCL1 202008Z 21007G12KT 35/15 A3009 RMK A01 T03530146  RH  029%=      5-min Rain = 0
KCL1 202009Z 19010KT 35/14 A3009 RMK A01 T03530142  RH  028%=      5-min Rain = 0
KCL1 202010Z 18012KT 35/14 A3009 RMK A01 T03520142  RH  028%=      5-min Rain = 0
KCL1 202011Z 18010KT 35/14 A3009 RMK A01 T03520141  RH  028%=      5-min Rain = 0
KCL1 202012Z 18007KT 35/14 A3009 RMK A01 T03510140  RH  028%=      5-min Rain = 0
KCL1 202013Z 18006KT 35/14 A3009 RMK A01 T03520143  RH  029%=      5-min Rain = 0
KCL1 202014Z 17005KT 35/14 A3009 RMK A01 T03540143  RH  028%=      5-min Rain = 0
KCL1 202015Z 16004KT 36/15 A3009 RMK A01 T03550145  RH  029%=      5-min Rain = 0
KCL1 202016Z 15005KT 36/15 A3009 RMK A01 T03560147  RH  029%=      5-min Rain = 0
KCL1 202017Z 15006KT 36/15 A3009 RMK A01 T03580150  RH  029%=      5-min Rain = 0
KCL1 202018Z 16004KT 36/15 A3008 RMK A01 T03600149  RH  028%=      5-min Rain = 0
KCL1 202019Z 27004KT 36/15 A3008 RMK A01 T03620148  RH  028%=      5-min Rain = 0
KCL1 202020Z 23007KT 36/14 A3008 RMK A01 T03630144  RH  027%=      5-min Rain = 0
KCL1 202021Z 22011KT 36/14 A3008 RMK A01 T03600142  RH  027%=      5-min Rain = 0
KCL1 202022Z 23011KT 36/14 A3008 RMK A01 T03580142  RH  028%=      5-min Rain = 0
KCL1 202023Z 23010KT 36/14 A3008 RMK A01 T03550141  RH  028%=      5-min Rain = 0
KCL1 202024Z 21010KT 35/14 A3008 RMK A01 T03530141  RH  028%=      5-min Rain = 0
KCL1 202025Z 26006KT 35/14 A3008 RMK A01 T03520142  RH  028%=      5-min Rain = 0
KCL1 202026Z 27005KT 36/14 A3008 RMK A01 T03550144  RH  028%=      5-min Rain = 0
KCL1 202027Z 24007KT 36/14 A3008 RMK A01 T03570143  RH  028%=      5-min Rain = 0
KCL1 202028Z 23007KT 36/14 A3008 RMK A01 T03570142  RH  028%=      5-min Rain = 0
KCL1 202029Z 23011KT 36/14 A3008 RMK A01 T03570140  RH  027%=      5-min Rain = 0
KCL1 202030Z 22011KT 36/14 A3008 RMK A01 T03570135  RH  026%=      5-min Rain = 0
KCL1 202031Z 22012G17KT 36/14 A3008 RMK A01 T03570135  RH  026%=      5-min Rain = 0
KCL1 202032Z 21012KT 36/13 A3008 RMK A01 T03570134  RH  026%=      5-min Rain = 0
KCL1 202033Z 22009KT 36/13 A3008 RMK A01 T03560132  RH  026%=      5-min Rain = 0
KCL1 202034Z 22008G13KT 36/13 A3008 RMK A01 T03550134  RH  027%=      5-min Rain = 0
KCL1 202035Z 22009KT 36/13 A3008 RMK A01 T03560132  RH  026%=      5-min Rain = 0
KCL1 202036Z 23010KT 36/13 A3008 RMK A01 T03570130  RH  026%=      5-min Rain = 0
KCL1 202037Z 21010KT 36/13 A3008 RMK A01 T03570129  RH  025%=      5-min Rain = 0
KCL1 202038Z 24010KT 36/13 A3008 RMK A01 T03570130  RH  025%=      5-min Rain = 0
KCL1 202039Z 21009KT 36/13 A3008 RMK A01 T03580126  RH  025%=      5-min Rain = 0
KCL1 202040Z 21011KT 36/13 A3008 RMK A01 T03590127  RH  025%=      5-min Rain = 0
KCL1 202041Z 22009KT 36/13 A3008 RMK A01 T03600128  RH  025%=      5-min Rain = 0
KCL1 202042Z 21011KT 36/12 A3007 RMK A01 T03600123  RH  024%=      5-min Rain = 0
KCL1 202043Z 23009KT 36/12 A3007 RMK A01 T03600123  RH  024%=      5-min Rain = 0
KCL1 202044Z 22012G17KT 36/12 A3007 RMK A01 T03600123  RH  024%=      5-min Rain = 0
KCL1 202045Z 23014KT 36/12 A3007 RMK A01 T03600120  RH  024%=      5-min Rain = 0
KCL1 202046Z 22010KT 36/12 A3007 RMK A01 T03580119  RH  024%=      5-min Rain = 0
KCL1 202047Z 23006KT 36/12 A3007 RMK A01 T03570118  RH  024%=      5-min Rain = 0
KCL1 202048Z 26005KT 36/12 A3007 RMK A01 T03560120  RH  024%=      5-min Rain = 0
KCL1 202049Z 22004KT 36/12 A3007 RMK A01 T03560121  RH  024%=      5-min Rain = 0
KCL1 202050Z 21007G13KT 36/12 A3007 RMK A01 T03570119  RH  024%=      5-min Rain = 0
KCL1 202051Z 22011KT 36/12 A3007 RMK A01 T03570118  RH  024%=      5-min Rain = 0
KCL1 202052Z 22008KT 36/12 A3007 RMK A01 T03560117  RH  024%=      5-min Rain = 0
KCL1 202053Z 22010KT 36/12 A3007 RMK A01 T03560116  RH  024%=      5-min Rain = 0
KCL1 202054Z 21008KT 36/12 A3007 RMK A01 T03560116  RH  023%=      5-min Rain = 0
KCL1 202055Z 24006G12KT 36/12 A3007 RMK A01 T03560116  RH  023%=      5-min Rain = 0
KCL1 202056Z 22012KT 36/12 A3007 RMK A01 T03560116  RH  023%=      5-min Rain = 0
KCL1 202057Z 23011KT 36/12 A3007 RMK A01 T03570118  RH  024%=      5-min Rain = 0
KCL1 202058Z 23012KT 36/12 A3007 RMK A01 T03580118  RH  024%=      5-min Rain = 0
KCL1 202059Z 22011KT 36/12 A3007 RMK A01 T03580118  RH  023%=      5-min Rain = 0
KCL1 202100Z 22010KT 36/12 A3007 RMK A01 T03580118  RH  023%=      5-min Rain = 0
KCL1 202101Z 21007KT 36/12 A3007 RMK A01 T03580117  RH  023%=      5-min Rain = 0
KCL1 202102Z 22008KT 36/12 A3007 RMK A01 T03590120  RH  024%=      5-min Rain = 0
KCL1 202103Z 22006KT 36/12 A3007 RMK A01 T03610119  RH  023%=      5-min Rain = 0
KCL1 202104Z 20006KT 36/12 A3007 RMK A01 T03600122  RH  024%=      5-min Rain = 0
KCL1 202105Z 24005KT 36/12 A3007 RMK A01 T03600124  RH  024%=      5-min Rain = 0
KCL1 202106Z 23007KT 36/12 A3007 RMK A01 T03610122  RH  024%=      5-min Rain = 0
KCL1 202107Z 21007KT 36/12 A3007 RMK A01 T03600122  RH  024%=      5-min Rain = 0
KCL1 202108Z 23007KT 36/12 A3007 RMK A01 T03590124  RH  024%=      5-min Rain = 0
KCL1 202109Z 22010KT 36/12 A3007 RMK A01 T03580123  RH  024%=      5-min Rain = 0
KCL1 202110Z 20007KT 36/12 A3007 RMK A01 T03560123  RH  025%=      5-min Rain = 0
KCL1 202111Z 18007KT 36/12 A3007 RMK A01 T03550122  RH  025%=      5-min Rain = 0
KCL1 202112Z 18006KT 35/12 A3006 RMK A01 T03530124  RH  025%=      5-min Rain = 0
KCL1 202113Z 20006KT 35/13 A3006 RMK A01 T03530126  RH  025%=      5-min Rain = 0
KCL1 202114Z 19007KT 35/12 A3007 RMK A01 T03540124  RH  025%=      5-min Rain = 0
KCL1 202115Z 19008KT 35/12 A3006 RMK A01 T03530123  RH  025%=      5-min Rain = 0
KCL1 202116Z 19007KT 35/12 A3006 RMK A01 T03520124  RH  025%=      5-min Rain = 0
KCL1 202117Z 19007KT 35/13 A3006 RMK A01 T03520125  RH  025%=      5-min Rain = 0
KCL1 202118Z 20005KT 35/12 A3006 RMK A01 T03530124  RH  025%=      5-min Rain = 0
KCL1 202119Z 20004KT 35/12 A3006 RMK A01 T03530123  RH  025%=      5-min Rain = 0
KCL1 202120Z 23007KT 35/12 A3006 RMK A01 T03530124  RH  025%=      5-min Rain = 0
KCL1 202121Z 23005KT 35/13 A3006 RMK A01 T03530125  RH  025%=      5-min Rain = 0
KCL1 202122Z 21003KT 36/13 A3006 RMK A01 T03550126  RH  025%=      5-min Rain = 0
KCL1 202123Z 23006KT 36/13 A3006 RMK A01 T03570127  RH  025%=      5-min Rain = 0
KCL1 202124Z 22008KT 36/13 A3006 RMK A01 T03600126  RH  025%=      5-min Rain = 0
KCL1 202125Z 21005KT 36/13 A3006 RMK A01 T03610127  RH  025%=      5-min Rain = 0
KCL1 202126Z 21004KT 36/13 A3006 RMK A01 T03640131  RH  025%=      5-min Rain = 0
KCL1 202127Z 18005KT 37/13 A3006 RMK A01 T03680130  RH  024%=      5-min Rain = 0
KCL1 202128Z 21007KT 37/13 A3006 RMK A01 T03700128  RH  023%=      5-min Rain = 0
KCL1 202129Z 22009KT 37/12 A3006 RMK A01 T03700124  RH  023%=      5-min Rain = 0
KCL1 202130Z 21008KT 37/12 A3006 RMK A01 T03690121  RH  023%=      5-min Rain = 0
KCL1 202131Z 23011KT 37/12 A3006 RMK A01 T03680121  RH  023%=      5-min Rain = 0
KCL1 202132Z 21010KT 37/12 A3006 RMK A01 T03660120  RH  023%=      5-min Rain = 0
KCL1 202133Z 22009KT 37/12 A3006 RMK A01 T03650119  RH  023%=      5-min Rain = 0
KCL1 202134Z 21008KT 36/12 A3005 RMK A01 T03630118  RH  023%=      5-min Rain = 0
KCL1 202135Z 19008KT 36/12 A3005 RMK A01 T03630120  RH  023%=      5-min Rain = 0
KCL1 202136Z 17008KT 36/12 A3005 RMK A01 T03640120  RH  023%=      5-min Rain = 0
KCL1 202137Z 17006G11KT 36/12 A3005 RMK A01 T03640120  RH  023%=      5-min Rain = 0
KCL1 202138Z 21010KT 36/12 A3005 RMK A01 T03640123  RH  024%=      5-min Rain = 0
KCL1 202139Z 23008G13KT 37/12 A3005 RMK A01 T03670124  RH  023%=      5-min Rain = 0
KCL1 202140Z 22011KT 37/12 A3005 RMK A01 T03700122  RH  023%=      5-min Rain = 0
KCL1 202141Z 21006KT 37/12 A3005 RMK A01 T03680123  RH  023%=      5-min Rain = 0
KCL1 202142Z 22006KT 37/12 A3005 RMK A01 T03670123  RH  023%=      5-min Rain = 0
KCL1 202143Z 21008KT 37/12 A3005 RMK A01 T03670123  RH  023%=      5-min Rain = 0
KCL1 202144Z 22013KT 37/12 A3005 RMK A01 T03660124  RH  023%=      5-min Rain = 0
KCL1 202145Z 22011G16KT 37/12 A3005 RMK A01 T03660122  RH  023%=      5-min Rain = 0
KCL1 202146Z 22009KT 37/12 A3005 RMK A01 T03650123  RH  023%=      5-min Rain = 0
KCL1 202147Z 21010KT 37/12 A3005 RMK A01 T03650123  RH  024%=      5-min Rain = 0
KCL1 202148Z 23008KT 36/12 A3005 RMK A01 T03640124  RH  024%=      5-min Rain = 0
KCL1 202149Z 22007KT 37/13 A3005 RMK A01 T03650125  RH  024%=      5-min Rain = 0
KCL1 202150Z 21010KT 37/12 A3005 RMK A01 T03660124  RH  023%=      5-min Rain = 0
KCL1 202151Z 23007KT 37/13 A3005 RMK A01 T03670125  RH  023%=      5-min Rain = 0
KCL1 202152Z 25010KT 37/13 A3005 RMK A01 T03680126  RH  023%=      5-min Rain = 0
KCL1 202153Z 24010KT 37/13 A3005 RMK A01 T03690125  RH  023%=      5-min Rain = 0
KCL1 202154Z 23005KT 37/12 A3005 RMK A01 T03670123  RH  023%=      5-min Rain = 0
KCL1 202155Z 27005G10KT 36/13 A3005 RMK A01 T03640125  RH  024%=      5-min Rain = 0
KCL1 202156Z 27010KT 36/13 A3005 RMK A01 T03640125  RH  024%=      5-min Rain = 0
KCL1 202157Z 25009KT 36/13 A3005 RMK A01 T03630125  RH  024%=      5-min Rain = 0
KCL1 202158Z 25008KT 36/13 A3005 RMK A01 T03630125  RH  024%=      5-min Rain = 0
KCL1 202159Z 22008KT 36/12 A3005 RMK A01 T03630124  RH  024%=      5-min Rain = 0
KCL1 202200Z 20005KT 36/13 A3005 RMK A01 T03610125  RH  024%=      5-min Rain = 0
KCL1 202201Z 21007KT 36/13 A3005 RMK A01 T03600125  RH  024%=      5-min Rain = 0
KCL1 202202Z 19009KT 36/13 A3005 RMK A01 T03610125  RH  024%=      5-min Rain = 0
KCL1 202203Z 18012KT 36/13 A3005 RMK A01 T03610125  RH  024%=      5-min Rain = 0
KCL1 202204Z 18010KT 36/12 A3005 RMK A01 T03600123  RH  024%=      5-min Rain = 0
KCL1 202205Z 18009G14KT 36/12 A3005 RMK A01 T03580124  RH  024%=      5-min Rain = 0
KCL1 202206Z 18009KT 36/13 A3005 RMK A01 T03600125  RH  024%=      5-min Rain = 0
KCL1 202207Z 20006KT 36/13 A3005 RMK A01 T03620125  RH  024%=      5-min Rain = 0
KCL1 202208Z 18009KT 37/13 A3005 RMK A01 T03650125  RH  024%=      5-min Rain = 0
KCL1 202209Z 16008KT 37/13 A3005 RMK A01 T03670126  RH  024%=      5-min Rain = 0
KCL1 202210Z 15008KT 37/13 A3005 RMK A01 T03670128  RH  024%=      5-min Rain = 0
KCL1 202211Z 15009KT 37/13 A3005 RMK A01 T03660127  RH  024%=      5-min Rain = 0
KCL1 202212Z 18009KT 36/13 A3005 RMK A01 T03640126  RH  024%=      5-min Rain = 0
KCL1 202213Z 17009KT 36/13 A3005 RMK A01 T03630126  RH  024%=      5-min Rain = 0
KCL1 202214Z 18008KT 36/12 A3005 RMK A01 T03620124  RH  024%=      5-min Rain = 0
KCL1 202215Z 18010G15KT 36/13 A3005 RMK A01 T03610127  RH  025%=      5-min Rain = 0
KCL1 202216Z 19007G14KT 36/12 A3005 RMK A01 T03610123  RH  024%=      5-min Rain = 0
KCL1 202217Z 20009KT 36/12 A3005 RMK A01 T03600122  RH  024%=      5-min Rain = 0
KCL1 202218Z 18011G16KT 36/12 A3005 RMK A01 T03590121  RH  024%=      5-min Rain = 0
KCL1 202219Z 20010KT 36/12 A3005 RMK A01 T03580121  RH  024%=      5-min Rain = 0
KCL1 202220Z 19012KT 36/12 A3005 RMK A01 T03580121  RH  024%=      5-min Rain = 0
KCL1 202221Z 19009KT 36/12 A3005 RMK A01 T03570121  RH  024%=      5-min Rain = 0
KCL1 202222Z 19008KT 36/12 A3005 RMK A01 T03570120  RH  024%=      5-min Rain = 0
KCL1 202223Z 23008KT 36/12 A3005 RMK A01 T03560121  RH  024%=      5-min Rain = 0
KCL1 202224Z 23006KT 36/12 A3005 RMK A01 T03570119  RH  024%=      5-min Rain = 0
KCL1 202225Z 21007KT 36/12 A3005 RMK A01 T03580121  RH  024%=      5-min Rain = 0
KCL1 202226Z 22008KT 36/12 A3005 RMK A01 T03590119  RH  024%=      5-min Rain = 0
KCL1 202227Z 20007KT 36/12 A3005 RMK A01 T03590119  RH  024%=      5-min Rain = 0
KCL1 202228Z 20006KT 36/12 A3005 RMK A01 T03580119  RH  024%=      5-min Rain = 0
KCL1 202229Z 21006KT 36/12 A3005 RMK A01 T03570119  RH  024%=      5-min Rain = 0
KCL1 202230Z 19003KT 36/12 A3005 RMK A01 T03570121  RH  024%=      5-min Rain = 0
KCL1 202231Z 19010G15KT 36/12 A3005 RMK A01 T03580123  RH  024%=      5-min Rain = 0
KCL1 202232Z 19009KT 36/12 A3005 RMK A01 T03610121  RH  024%=      5-min Rain = 0
KCL1 202233Z 20007KT 36/12 A3004 RMK A01 T03620119  RH  023%=      5-min Rain = 0
KCL1 202234Z 23009KT 36/12 A3004 RMK A01 T03630120  RH  023%=      5-min Rain = 0
KCL1 202235Z 22008KT 36/12 A3004 RMK A01 T03640118  RH  023%=      5-min Rain = 0
KCL1 202236Z 21011KT 37/12 A3004 RMK A01 T03650118  RH  023%=      5-min Rain = 0
KCL1 202237Z 19012G18KT 37/12 A3004 RMK A01 T03650120  RH  023%=      5-min Rain = 0
KCL1 202238Z 19011G16KT 37/12 A3004 RMK A01 T03650120  RH  023%=      5-min Rain = 0
KCL1 202239Z 19013KT 37/12 A3004 RMK A01 T03650118  RH  023%=      5-min Rain = 0
KCL1 202240Z 19011KT 36/12 A3004 RMK A01 T03640120  RH  023%=      5-min Rain = 0
KCL1 202241Z 19009KT 36/12 A3004 RMK A01 T03640119  RH  023%=      5-min Rain = 0
KCL1 202242Z 21006KT 36/12 A3004 RMK A01 T03640121  RH  023%=      5-min Rain = 0
KCL1 202243Z 20010KT 37/12 A3004 RMK A01 T03670121  RH  023%=      5-min Rain = 0
KCL1 202244Z 20010KT 37/12 A3004 RMK A01 T03680120  RH  023%=      5-min Rain = 0
KCL1 202245Z 18009KT 37/12 A3004 RMK A01 T03680122  RH  023%=      5-min Rain = 0
KCL1 202246Z 16010KT 37/12 A3004 RMK A01 T03700121  RH  022%=      5-min Rain = 0
KCL1 202247Z 16010KT 37/12 A3004 RMK A01 T03700120  RH  022%=      5-min Rain = 0
KCL1 202248Z 17009KT 37/12 A3004 RMK A01 T03700121  RH  022%=      5-min Rain = 0
KCL1 202249Z 18009KT 37/12 A3004 RMK A01 T03710116  RH  022%=      5-min Rain = 0
KCL1 202250Z 17008KT 37/12 A3004 RMK A01 T03720115  RH  021%=      5-min Rain = 0
KCL1 202251Z 17013KT 37/12 A3004 RMK A01 T03710118  RH  022%=      5-min Rain = 0
KCL1 202252Z 17011KT 37/12 A3004 RMK A01 T03720118  RH  022%=      5-min Rain = 0
KCL1 202253Z 17012KT 37/12 A3004 RMK A01 T03700118  RH  022%=      5-min Rain = 0
KCL1 202254Z 16010KT 37/12 A3004 RMK A01 T03680119  RH  022%=      5-min Rain = 0
KCL1 202255Z 15010KT 37/12 A3004 RMK A01 T03670120  RH  023%=      5-min Rain = 0
KCL1 202256Z 14009KT 37/12 A3004 RMK A01 T03670118  RH  023%=      5-min Rain = 0
KCL1 202257Z 14009KT 37/12 A3004 RMK A01 T03650120  RH  023%=      5-min Rain = 0
KCL1 202258Z 15006KT 37/12 A3004 RMK A01 T03660122  RH  023%=      5-min Rain = 0
KCL1 202259Z 18007KT 37/12 A3004 RMK A01 T03670121  RH  023%=      5-min Rain = 0
KCL1 202300Z 18009KT 37/12 A3004 RMK A01 T03680119  RH  022%=      5-min Rain = 0
KCL1 202301Z 17012KT 37/12 A3004 RMK A01 T03680120  RH  023%=      5-min Rain = 0
KCL1 202302Z 17009KT 37/12 A3004 RMK A01 T03660120  RH  023%=      5-min Rain = 0
KCL1 202303Z 17007KT 36/12 A3004 RMK A01 T03640123  RH  024%=      5-min Rain = 0
KCL1 202304Z 16010KT 37/12 A3004 RMK A01 T03660124  RH  023%=      5-min Rain = 0
KCL1 202305Z 18009KT 37/12 A3004 RMK A01 T03670121  RH  023%=      5-min Rain = 0
KCL1 202306Z 19009KT 37/12 A3004 RMK A01 T03660122  RH  023%=      5-min Rain = 0
KCL1 202307Z 19010KT 37/12 A3004 RMK A01 T03670120  RH  023%=      5-min Rain = 0
KCL1 202308Z 18009KT 37/12 A3004 RMK A01 T03660121  RH  023%=      5-min Rain = 0
KCL1 202309Z 18010KT 37/12 A3004 RMK A01 T03650123  RH  023%=      5-min Rain = 0
KCL1 202310Z 19008KT 36/12 A3004 RMK A01 T03630122  RH  024%=      5-min Rain = 0
KCL1 202311Z 18010KT 37/12 A3004 RMK A01 T03650123  RH  023%=      5-min Rain = 0
KCL1 202312Z 18011KT 37/12 A3004 RMK A01 T03650122  RH  023%=      5-min Rain = 0
KCL1 202313Z 17008KT 36/13 A3004 RMK A01 T03640125  RH  024%=      5-min Rain = 0
KCL1 202314Z 18010KT 36/13 A3004 RMK A01 T03640125  RH  024%=      5-min Rain = 0
KCL1 202315Z 18008KT 36/12 A3004 RMK A01 T03630124  RH  024%=      5-min Rain = 0
KCL1 202316Z 17009KT 36/13 A3004 RMK A01 T03620125  RH  024%=      5-min Rain = 0
KCL1 202317Z 17011KT 36/13 A3004 RMK A01 T03620125  RH  024%=      5-min Rain = 0
KCL1 202318Z 16013KT 36/13 A3004 RMK A01 T03620125  RH  024%=      5-min Rain = 0
KCL1 202319Z 17014KT 36/13 A3004 RMK A01 T03610126  RH  024%=      5-min Rain = 0
KCL1 202320Z 16011KT 36/13 A3004 RMK A01 T03590127  RH  025%=      5-min Rain = 0
KCL1 202321Z 15012KT 36/13 A3004 RMK A01 T03570128  RH  025%=      5-min Rain = 0
KCL1 202322Z 15012KT 35/13 A3005 RMK A01 T03530126  RH  025%=      5-min Rain = 0
KCL1 202323Z 15009KT 35/13 A3005 RMK A01 T03520128  RH  026%=      5-min Rain = 0
KCL1 202324Z 12006KT 35/13 A3005 RMK A01 T03520129  RH  026%=      5-min Rain = 0
KCL1 202325Z 12007KT 35/13 A3005 RMK A01 T03530126  RH  026%=      5-min Rain = 0
KCL1 202326Z 16009KT 35/13 A3005 RMK A01 T03540128  RH  026%=      5-min Rain = 0
KCL1 202327Z 15012KT 36/13 A3005 RMK A01 T03560128  RH  025%=      5-min Rain = 0
KCL1 202328Z 16011KT 36/13 A3005 RMK A01 T03580129  RH  025%=      5-min Rain = 0
KCL1 202329Z 16010KT 36/13 A3005 RMK A01 T03590128  RH  025%=      5-min Rain = 0
KCL1 202330Z 17008KT 36/13 A3005 RMK A01 T03580128  RH  025%=      5-min Rain = 0
KCL1 202331Z 18009KT 36/13 A3005 RMK A01 T03580129  RH  025%=      5-min Rain = 0
KCL1 202332Z 17011KT 36/13 A3005 RMK A01 T03590129  RH  025%=      5-min Rain = 0
KCL1 202333Z 17009KT 36/13 A3005 RMK A01 T03580126  RH  025%=      5-min Rain = 0
KCL1 202334Z 16010KT 36/13 A3005 RMK A01 T03570127  RH  025%=      5-min Rain = 0
KCL1 202335Z 15009KT 36/13 A3005 RMK A01 T03570126  RH  025%=      5-min Rain = 0
KCL1 202336Z 14009KT 36/13 A3005 RMK A01 T03570125  RH  025%=      5-min Rain = 0
KCL1 202337Z 12012G17KT 36/13 A3005 RMK A01 T03570126  RH  025%=      5-min Rain = 0
KCL1 202338Z 13014KT 36/13 A3005 RMK A01 T03560126  RH  025%=      5-min Rain = 0
KCL1 202339Z 13010KT 35/13 A3005 RMK A01 T03510127  RH  026%=      5-min Rain = 0
KCL1 202340Z 13009G14KT 35/13 A3005 RMK A01 T03480129  RH  027%=      5-min Rain = 0
KCL1 202341Z 14012KT 35/13 A3005 RMK A01 T03470130  RH  027%=      5-min Rain = 0
KCL1 202342Z 13015KT 35/13 A3005 RMK A01 T03460130  RH  027%=      5-min Rain = 0
KCL1 202343Z 12017G23KT 35/13 A3005 RMK A01 T03450129  RH  027%=      5-min Rain = 0
KCL1 202344Z 13016KT 34/13 A3005 RMK A01 T03430130  RH  028%=      5-min Rain = 0
KCL1 202345Z 14015G21KT 34/13 A3006 RMK A01 T03410132  RH  028%=      5-min Rain = 0
KCL1 202346Z 13018KT 34/13 A3005 RMK A01 T03410134  RH  029%=      5-min Rain = 0
KCL1 202347Z 13016KT 34/14 A3005 RMK A01 T03380135  RH  029%=      5-min Rain = 0
KCL1 202348Z 13016KT 34/14 A3006 RMK A01 T03370137  RH  030%=      5-min Rain = 0
KCL1 202349Z 12020KT 34/14 A3006 RMK A01 T03350135  RH  030%=      5-min Rain = 0
KCL1 202350Z 12016KT 33/13 A3006 RMK A01 T03320134  RH  030%=      5-min Rain = 0
KCL1 202351Z 12018KT 33/13 A3005 RMK A01 T03280134  RH  031%=      5-min Rain = 0
KCL1 202352Z 12019KT 33/13 A3005 RMK A01 T03250133  RH  031%=      5-min Rain = 0
KCL1 202353Z 12016KT 32/13 A3005 RMK A01 T03230133  RH  031%=      5-min Rain = 0
KCL1 202354Z 12017KT 32/13 A3005 RMK A01 T03220133  RH  032%=      5-min Rain = 0
KCL1 202355Z 12015KT 32/13 A3005 RMK A01 T03210133  RH  032%=      5-min Rain = 0
KCL1 202356Z 12014G19KT 32/13 A3005 RMK A01 T03210134  RH  032%=      5-min Rain = 0
KCL1 202357Z 12016KT 32/13 A3005 RMK A01 T03210133  RH  032%=      5-min Rain = 0
KCL1 202358Z 13015KT 32/13 A3006 RMK A01 T03200132  RH  032%=      5-min Rain = 0
KCL1 202359Z 12013KT 32/13 A3006 RMK A01 T03200132  RH  032%=      5-min Rain = 0
KCL1 210000Z 12014KT 32/13 A3006 RMK A01 T03200133  RH  032%=      5-min Rain = 0
KCL1 210001Z 12014KT 32/13 A3006 RMK A01 T03200132  RH  032%=      5-min Rain = 0
KCL1 210002Z 13015KT 32/13 A3006 RMK A01 T03210131  RH  032%=      5-min Rain = 0
KCL1 210003Z 12014KT 32/13 A3006 RMK A01 T03220131  RH  031%=      5-min Rain = 0
KCL1 210004Z 12015KT 32/13 A3006 RMK A01 T03230131  RH  031%=      5-min Rain = 0
KCL1 210005Z 12014KT 32/13 A3006 RMK A01 T03230130  RH  031%=      5-min Rain = 0
KCL1 210006Z 12013KT 32/13 A3006 RMK A01 T03230131  RH  031%=      5-min Rain = 0
KCL1 210007Z 13013KT 32/13 A3006 RMK A01 T03220132  RH  032%=      5-min Rain = 0
KCL1 210008Z 13013KT 32/13 A3006 RMK A01 T03210133  RH  032%=      5-min Rain = 0
KCL1 210009Z 12015KT 32/13 A3006 RMK A01 T03200133  RH  032%=      5-min Rain = 0
KCL1 210010Z 12016KT 32/13 A3006 RMK A01 T03180133  RH  032%=      5-min Rain = 0
KCL1 210011Z 12011KT 32/14 A3006 RMK A01 T03160138  RH  034%=      5-min Rain = 0
KCL1 210012Z 12014KT 31/15 A3006 RMK A01 T03120153  RH  038%=      5-min Rain = 0.01
KCL1 210013Z 12013KT 30/16 A3006 RMK A01 T02990162  RH  044%=      5-min Rain = 0.01
KCL1 210014Z 11013KT 28/16 A3006 RMK A01 T02820160  RH  047%=      5-min Rain = 0.01
KCL1 210015Z 11012KT 27/16 A3006 RMK A01 T02740157  RH  049%=      5-min Rain = 0.01
KCL1 210016Z 11014G19KT 27/16 A3006 RMK A01 T02700157  RH  050%=      5-min Rain = 0.01
KCL1 210017Z 11015KT 27/15 A3006 RMK A01 T02690149  RH  048%=      5-min Rain = 0
KCL1 210018Z 11014KT 27/15 A3006 RMK A01 T02730154  RH  048%=      5-min Rain = 0
KCL1 210019Z 11015KT 27/16 A3006 RMK A01 T02710157  RH  050%=      5-min Rain = 0.01
KCL1 210020Z 11014KT 27/16 A3006 RMK A01 T02690157  RH  050%=      5-min Rain = 0
KCL1 210021Z 10012KT 27/16 A3006 RMK A01 T02680161  RH  052%=      5-min Rain = 0
KCL1 210022Z 11012KT 27/17 A3006 RMK A01 T02650165  RH  054%=      5-min Rain = 0
KCL1 210023Z 11011KT 26/17 A3006 RMK A01 T02620168  RH  056%=      5-min Rain = 0.01
KCL1 210024Z 11011KT 26/17 A3006 RMK A01 T02600169  RH  057%=      5-min Rain = 0
KCL1 210025Z 11011KT 26/17 A3006 RMK A01 T02590168  RH  057%=      5-min Rain = 0
KCL1 210026Z 10011KT 26/17 A3006 RMK A01 T02600166  RH  056%=      5-min Rain = 0
KCL1 210027Z 11010KT 26/17 A3006 RMK A01 T02620166  RH  055%=      5-min Rain = 0
KCL1 210028Z 11011KT 26/17 A3006 RMK A01 T02640166  RH  055%=      5-min Rain = 0
KCL1 210029Z 11010KT 27/16 A3006 RMK A01 T02660163  RH  053%=      5-min Rain = 0
KCL1 210030Z 12011KT 27/16 A3006 RMK A01 T02690161  RH  051%=      5-min Rain = 0
KCL1 210031Z 12011KT 27/16 A3006 RMK A01 T02720158  RH  050%=      5-min Rain = 0
KCL1 210032Z 12010KT 27/16 A3006 RMK A01 T02740159  RH  049%=      5-min Rain = 0
KCL1 210033Z 12009KT 28/16 A3006 RMK A01 T02760159  RH  049%=      5-min Rain = 0
KCL1 210034Z 12010KT 28/16 A3006 RMK A01 T02770156  RH  047%=      5-min Rain = 0
KCL1 210035Z 11008KT 28/16 A3006 RMK A01 T02800158  RH  048%=      5-min Rain = 0
KCL1 210036Z 12008KT 28/16 A3006 RMK A01 T02810163  RH  049%=      5-min Rain = 0
KCL1 210037Z 12007KT 28/16 A3006 RMK A01 T02800163  RH  049%=      5-min Rain = 0
KCL1 210038Z 12008KT 28/16 A3006 RMK A01 T02790161  RH  048%=      5-min Rain = 0
KCL1 210039Z 12009KT 28/16 A3006 RMK A01 T02800156  RH  047%=      5-min Rain = 0.01
KCL1 210040Z 12008KT 28/16 A3006 RMK A01 T02810161  RH  048%=      5-min Rain = 0
KCL1 210041Z 12007KT 28/16 A3006 RMK A01 T02790164  RH  050%=      5-min Rain = 0
KCL1 210042Z 12006KT 28/16 A3006 RMK A01 T02760162  RH  050%=      5-min Rain = 0
KCL1 210043Z 12007KT 28/16 A3006 RMK A01 T02750161  RH  050%=      5-min Rain = 0
KCL1 210044Z 12008KT 27/16 A3006 RMK A01 T02740164  RH  051%=      5-min Rain = 0
KCL1 210045Z 12008KT 27/16 A3006 RMK A01 T02730156  RH  049%=      5-min Rain = 0
KCL1 210046Z 12008KT 28/16 A3006 RMK A01 T02750159  RH  049%=      5-min Rain = 0
KCL1 210047Z 12008KT 28/16 A3006 RMK A01 T02750159  RH  049%=      5-min Rain = 0
KCL1 210048Z 12008KT 28/16 A3006 RMK A01 T02760158  RH  049%=      5-min Rain = 0
KCL1 210049Z 12008KT 28/16 A3006 RMK A01 T02760158  RH  049%=      5-min Rain = 0
KCL1 210050Z 13007KT 28/16 A3006 RMK A01 T02770160  RH  049%=      5-min Rain = 0.01
KCL1 210051Z 13007KT 28/16 A3006 RMK A01 T02770159  RH  049%=      5-min Rain = 0
KCL1 210052Z 13006KT 28/16 A3006 RMK A01 T02770156  RH  048%=      5-min Rain = 0
KCL1 210053Z 13005KT 28/16 A3006 RMK A01 T02780156  RH  047%=      5-min Rain = 0
KCL1 210054Z 12004KT 28/16 A3007 RMK A01 T02790156  RH  047%=      5-min Rain = 0
KCL1 210055Z 13004KT 28/15 A3007 RMK A01 T02800154  RH  046%=      5-min Rain = 0
KCL1 210056Z 13005KT 28/15 A3007 RMK A01 T02820153  RH  045%=      5-min Rain = 0
KCL1 210057Z 13006KT 28/15 A3007 RMK A01 T02830151  RH  045%=      5-min Rain = 0
KCL1 210058Z 14005KT 29/15 A3007 RMK A01 T02850154  RH  045%=      5-min Rain = 0
KCL1 210059Z 15004KT 29/15 A3007 RMK A01 T02860153  RH  044%=      5-min Rain = 0
KCL1 210100Z 16004KT 29/16 A3007 RMK A01 T02880157  RH  045%=      5-min Rain = 0
KCL1 210101Z 16006KT 29/16 A3007 RMK A01 T02880156  RH  045%=      5-min Rain = 0
KCL1 210102Z 17006KT 29/16 A3007 RMK A01 T02890156  RH  044%=      5-min Rain = 0
KCL1 210103Z 18006KT 29/16 A3007 RMK A01 T02900155  RH  044%=      5-min Rain = 0
KCL1 210104Z 19005KT 29/15 A3008 RMK A01 T02910152  RH  043%=      5-min Rain = 0
KCL1 210105Z 20006KT 29/15 A3008 RMK A01 T02920153  RH  043%=      5-min Rain = 0
KCL1 210106Z 22006KT 29/15 A3008 RMK A01 T02940148  RH  041%=      5-min Rain = 0
KCL1 210107Z 24006KT 30/15 A3008 RMK A01 T02970153  RH  042%=      5-min Rain = 0
KCL1 210108Z 26007KT 30/16 A3008 RMK A01 T02980160  RH  043%=      5-min Rain = 0
KCL1 210109Z 26007KT 30/16 A3008 RMK A01 T02960162  RH  044%=      5-min Rain = 0
KCL1 210110Z 28008KT 29/16 A3008 RMK A01 T02930163  RH  045%=      5-min Rain = 0
KCL1 210111Z 27011G16KT 29/16 A3008 RMK A01 T02890160  RH  046%=      5-min Rain = 0
KCL1 210112Z 26010KT 29/16 A3008 RMK A01 T02850163  RH  048%=      5-min Rain = 0
KCL1 210113Z 26007KT 28/17 A3008 RMK A01 T02810167  RH  050%=      5-min Rain = 0
KCL1 210114Z 25010KT 28/16 A3008 RMK A01 T02780163  RH  050%=      5-min Rain = 0
KCL1 210115Z 27013KT 28/16 A3008 RMK A01 T02770164  RH  050%=      5-min Rain = 0
KCL1 210116Z 27013KT 27/17 A3008 RMK A01 T02710168  RH  053%=      5-min Rain = 0
KCL1 210117Z 28010KT 26/17 A3008 RMK A01 T02630168  RH  056%=      5-min Rain = 0
KCL1 210118Z 26008KT 26/17 A3008 RMK A01 T02580168  RH  057%=      5-min Rain = 0
KCL1 210119Z 26008KT 26/17 A3009 RMK A01 T02560169  RH  058%=      5-min Rain = 0
KCL1 210120Z 26006KT 26/17 A3009 RMK A01 T02560169  RH  059%=      5-min Rain = 0
KCL1 210121Z 24005KT 26/17 A3009 RMK A01 T02550174  RH  061%=      5-min Rain = 0
KCL1 210122Z 24006KT 25/17 A3009 RMK A01 T02530174  RH  061%=      5-min Rain = 0.01
KCL1 210123Z 24006KT 25/18 A3009 RMK A01 T02510178  RH  064%=      5-min Rain = 0
KCL1 210124Z 24006KT 25/17 A3009 RMK A01 T02490170  RH  061%=      5-min Rain = 0
KCL1 210125Z 21006KT 25/17 A3009 RMK A01 T02510169  RH  060%=      5-min Rain = 0
KCL1 210126Z 23005KT 25/17 A3009 RMK A01 T02540165  RH  058%=      5-min Rain = 0
KCL1 210127Z 24005KT 26/17 A3009 RMK A01 T02560170  RH  059%=      5-min Rain = 0
KCL1 210128Z 25006KT 26/17 A3009 RMK A01 T02550174  RH  061%=      5-min Rain = 0
KCL1 210129Z 25006KT 25/17 A3009 RMK A01 T02530174  RH  062%=      5-min Rain = 0
KCL1 210130Z 25006KT 25/18 A3009 RMK A01 T02510175  RH  063%=      5-min Rain = 0
KCL1 210131Z 26005KT 25/17 A3008 RMK A01 T02510171  RH  061%=      5-min Rain = 0
KCL1 210132Z 26005KT 25/17 A3008 RMK A01 T02510171  RH  061%=      5-min Rain = 0
KCL1 210133Z 27004KT 25/17 A3008 RMK A01 T02520168  RH  060%=      5-min Rain = 0
KCL1 210134Z 21003KT 25/17 A3008 RMK A01 T02540169  RH  060%=      5-min Rain = 0
KCL1 210135Z 23002KT 26/16 A3008 RMK A01 T02560159  RH  055%=      5-min Rain = 0
KCL1 210136Z 21003KT 26/16 A3008 RMK A01 T02590159  RH  054%=      5-min Rain = 0
KCL1 210137Z 22003KT 26/16 A3008 RMK A01 T02620161  RH  054%=      5-min Rain = 0
KCL1 210138Z 22003KT 27/16 A3008 RMK A01 T02650159  RH  052%=      5-min Rain = 0.01
KCL1 210139Z 22004KT 27/16 A3008 RMK A01 T02670159  RH  052%=      5-min Rain = 0
KCL1 210140Z 24004KT 27/16 A3008 RMK A01 T02680160  RH  052%=      5-min Rain = 0
KCL1 210141Z 25004KT 27/16 A3008 RMK A01 T02690158  RH  051%=      5-min Rain = 0
KCL1 210142Z 25004KT 27/16 A3008 RMK A01 T02700162  RH  052%=      5-min Rain = 0
KCL1 210143Z 24004KT 27/17 A3008 RMK A01 T02700168  RH  054%=      5-min Rain = 0
KCL1 210144Z 24004KT 27/17 A3008 RMK A01 T02690167  RH  054%=      5-min Rain = 0
KCL1 210145Z 26003KT 27/17 A3009 RMK A01 T02690169  RH  054%=      5-min Rain = 0
KCL1 210146Z 27002KT 27/17 A3009 RMK A01 T02680165  RH  053%=      5-min Rain = 0
KCL1 210147Z 26002KT 27/16 A3009 RMK A01 T02680162  RH  052%=      5-min Rain = 0
KCL1 210148Z 26002KT 27/16 A3009 RMK A01 T02680164  RH  053%=      5-min Rain = 0
KCL1 210149Z 27001KT 27/18 A3009 RMK A01 T02680175  RH  057%=      5-min Rain = 0
KCL1 210150Z 27000KT 27/17 A3009 RMK A01 T02660173  RH  057%=      5-min Rain = 0
KCL1 210151Z 00000KT 26/17 A3009 RMK A01 T02640166  RH  055%=      5-min Rain = 0
KCL1 210152Z 00000KT 26/16 A3009 RMK A01 T02640160  RH  053%=      5-min Rain = 0
KCL1 210153Z 27001KT 26/16 A3009 RMK A01 T02640157  RH  052%=      5-min Rain = 0
KCL1 210154Z 26001KT 26/15 A3009 RMK A01 T02640154  RH  051%=      5-min Rain = 0
KCL1 210155Z 25002KT 27/15 A3009 RMK A01 T02660154  RH  050%=      5-min Rain = 0
KCL1 210156Z 27003KT 27/15 A3009 RMK A01 T02680153  RH  049%=      5-min Rain = 0
KCL1 210157Z 27003KT 27/16 A3009 RMK A01 T02710155  RH  049%=      5-min Rain = 0
KCL1 210158Z 27003KT 27/15 A3009 RMK A01 T02720154  RH  049%=      5-min Rain = 0
KCL1 210159Z 27003KT 27/16 A3009 RMK A01 T02730156  RH  049%=      5-min Rain = 0
KCL1 210200Z 26003KT 27/15 A3009 RMK A01 T02740154  RH  048%=      5-min Rain = 0
KCL1 210201Z 26002KT 28/16 A3009 RMK A01 T02750161  RH  050%=      5-min Rain = 0
KCL1 210202Z 25002KT 28/17 A3009 RMK A01 T02750172  RH  053%=      5-min Rain = 0
KCL1 210203Z 24002KT 27/16 A3008 RMK A01 T02740158  RH  049%=      5-min Rain = 0
KCL1 210204Z 25002KT 28/15 A3008 RMK A01 T02750150  RH  047%=      5-min Rain = 0
KCL1 210205Z 25002KT 28/15 A3008 RMK A01 T02780145  RH  044%=      5-min Rain = 0
KCL1 210206Z 21001KT 28/15 A3008 RMK A01 T02810145  RH  043%=      5-min Rain = 0
KCL1 210207Z 19002KT 28/15 A3008 RMK A01 T02830148  RH  044%=      5-min Rain = 0
KCL1 210208Z 19002KT 28/15 A3008 RMK A01 T02840147  RH  043%=      5-min Rain = 0
KCL1 210209Z 18002KT 29/16 A3008 RMK A01 T02860164  RH  048%=      5-min Rain = 0
KCL1 210210Z 18002KT 29/16 A3008 RMK A01 T02850155  RH  045%=      5-min Rain = 0
KCL1 210211Z 17002KT 28/15 A3008 RMK A01 T02840148  RH  043%=      5-min Rain = 0
KCL1 210212Z 16003KT 28/15 A3008 RMK A01 T02840152  RH  045%=      5-min Rain = 0
KCL1 210213Z 16003KT 29/15 A3008 RMK A01 T02850148  RH  043%=      5-min Rain = 0
KCL1 210214Z 16004KT 29/15 A3008 RMK A01 T02860145  RH  042%=      5-min Rain = 0
KCL1 210215Z 16003KT 29/15 A3008 RMK A01 T02890152  RH  043%=      5-min Rain = 0
KCL1 210216Z 16003KT 29/15 A3008 RMK A01 T02890151  RH  043%=      5-min Rain = 0
KCL1 210217Z 15003KT 29/16 A3008 RMK A01 T02890156  RH  044%=      5-min Rain = 0
KCL1 210218Z 15002KT 29/16 A3008 RMK A01 T02880156  RH  045%=      5-min Rain = 0
KCL1 210219Z 15002KT 29/16 A3008 RMK A01 T02870155  RH  045%=      5-min Rain = 0
KCL1 210220Z 16002KT 29/16 A3008 RMK A01 T02860156  RH  045%=      5-min Rain = 0
KCL1 210221Z 18002KT 29/15 A3008 RMK A01 T02860154  RH  045%=      5-min Rain = 0
KCL1 210222Z 17002KT 29/15 A3008 RMK A01 T02850154  RH  045%=      5-min Rain = 0
KCL1 210223Z 15002KT 28/16 A3008 RMK A01 T02840156  RH  046%=      5-min Rain = 0
KCL1 210224Z 12003KT 28/15 A3008 RMK A01 T02830154  RH  046%=      5-min Rain = 0
KCL1 210225Z 16004KT 28/15 A3008 RMK A01 T02830153  RH  045%=      5-min Rain = 0
KCL1 210226Z 14004KT 29/15 A3008 RMK A01 T02860147  RH  043%=      5-min Rain = 0
KCL1 210227Z 14004KT 29/16 A3008 RMK A01 T02880162  RH  046%=      5-min Rain = 0
KCL1 210228Z 14005KT 29/16 A3008 RMK A01 T02870162  RH  047%=      5-min Rain = 0
KCL1 210229Z 14007KT 29/16 A3008 RMK A01 T02850162  RH  047%=      5-min Rain = 0
KCL1 210230Z 15006KT 28/16 A3008 RMK A01 T02840160  RH  047%=      5-min Rain = 0
KCL1 210231Z 15007KT 28/16 A3008 RMK A01 T02830159  RH  047%=      5-min Rain = 0
KCL1 210232Z 14007KT 28/16 A3008 RMK A01 T02830160  RH  047%=      5-min Rain = 0
KCL1 210233Z 14007KT 28/16 A3008 RMK A01 T02820162  RH  048%=      5-min Rain = 0
KCL1 210234Z 14008KT 28/16 A3008 RMK A01 T02810163  RH  049%=      5-min Rain = 0
KCL1 210235Z 14007KT 28/16 A3008 RMK A01 T02790163  RH  049%=      5-min Rain = 0
KCL1 210236Z 13007KT 28/16 A3008 RMK A01 T02780164  RH  050%=      5-min Rain = 0
KCL1 210237Z 13008KT 28/16 A3008 RMK A01 T02760164  RH  050%=      5-min Rain = 0
KCL1 210238Z 13008KT 28/16 A3008 RMK A01 T02750164  RH  051%=      5-min Rain = 0
KCL1 210239Z 13008KT 27/16 A3008 RMK A01 T02740163  RH  051%=      5-min Rain = 0
KCL1 210240Z 13008KT 27/16 A3008 RMK A01 T02730164  RH  051%=      5-min Rain = 0
KCL1 210241Z 12009KT 27/16 A3008 RMK A01 T02730164  RH  052%=      5-min Rain = 0
KCL1 210242Z 13008KT 27/16 A3008 RMK A01 T02710164  RH  052%=      5-min Rain = 0
KCL1 210243Z 12008KT 27/17 A3008 RMK A01 T02710165  RH  052%=      5-min Rain = 0
KCL1 210244Z 13008KT 27/17 A3008 RMK A01 T02700165  RH  053%=      5-min Rain = 0
KCL1 210245Z 13008KT 27/16 A3008 RMK A01 T02690162  RH  052%=      5-min Rain = 0
KCL1 210246Z 13008KT 27/16 A3008 RMK A01 T02690161  RH  052%=      5-min Rain = 0
KCL1 210247Z 13008KT 27/16 A3008 RMK A01 T02700161  RH  051%=      5-min Rain = 0
KCL1 210248Z 13009KT 27/16 A3008 RMK A01 T02700159  RH  051%=      5-min Rain = 0
KCL1 210249Z 12008KT 27/16 A3008 RMK A01 T02700160  RH  051%=      5-min Rain = 0
KCL1 210250Z 12007KT 27/16 A3008 RMK A01 T02710161  RH  051%=      5-min Rain = 0
KCL1 210251Z 12007KT 27/16 A3008 RMK A01 T02700161  RH  051%=      5-min Rain = 0
KCL1 210252Z 12007KT 27/16 A3008 RMK A01 T02700161  RH  051%=      5-min Rain = 0
KCL1 210253Z 12007KT 27/16 A3008 RMK A01 T02690161  RH  052%=      5-min Rain = 0
KCL1 210254Z 12007KT 27/16 A3008 RMK A01 T02680163  RH  052%=      5-min Rain = 0
KCL1 210255Z 12006KT 27/16 A3008 RMK A01 T02670162  RH  052%=      5-min Rain = 0
KCL1 210256Z 12006KT 27/16 A3008 RMK A01 T02660162  RH  053%=      5-min Rain = 0
KCL1 210257Z 12007KT 27/16 A3008 RMK A01 T02650161  RH  053%=      5-min Rain = 0
KCL1 210258Z 12006KT 27/16 A3009 RMK A01 T02650162  RH  053%=      5-min Rain = 0
KCL1 210259Z 13006KT 26/16 A3009 RMK A01 T02640161  RH  053%=      5-min Rain = 0
KCL1 210300Z 13006KT 26/16 A3009 RMK A01 T02640159  RH  052%=      5-min Rain = 0
KCL1 210301Z 13006KT 26/16 A3009 RMK A01 T02640158  RH  052%=      5-min Rain = 0
KCL1 210302Z 14005KT 26/16 A3009 RMK A01 T02640159  RH  052%=      5-min Rain = 0
KCL1 210303Z 14005KT 26/16 A3009 RMK A01 T02640159  RH  052%=      5-min Rain = 0
KCL1 210304Z 14006KT 26/16 A3009 RMK A01 T02640158  RH  052%=      5-min Rain = 0
KCL1 210305Z 14005KT 26/16 A3009 RMK A01 T02640158  RH  052%=      5-min Rain = 0
KCL1 210306Z 14006KT 27/16 A3009 RMK A01 T02650157  RH  052%=      5-min Rain = 0
KCL1 210307Z 14006KT 27/16 A3009 RMK A01 T02650156  RH  051%=      5-min Rain = 0
KCL1 210308Z 15005KT 27/16 A3009 RMK A01 T02660156  RH  051%=      5-min Rain = 0
KCL1 210309Z 14006KT 27/16 A3009 RMK A01 T02670156  RH  051%=      5-min Rain = 0
KCL1 210310Z 15006KT 27/16 A3009 RMK A01 T02680155  RH  050%=      5-min Rain = 0
KCL1 210311Z 15007KT 27/15 A3009 RMK A01 T02680154  RH  050%=      5-min Rain = 0
KCL1 210312Z 15006KT 27/15 A3009 RMK A01 T02700153  RH  049%=      5-min Rain = 0
KCL1 210313Z 15006KT 27/15 A3009 RMK A01 T02710152  RH  048%=      5-min Rain = 0
KCL1 210314Z 16005KT 27/15 A3009 RMK A01 T02720152  RH  048%=      5-min Rain = 0
KCL1 210315Z 16005KT 27/15 A3009 RMK A01 T02720152  RH  048%=      5-min Rain = 0
KCL1 210316Z 15006KT 27/15 A3009 RMK A01 T02720153  RH  048%=      5-min Rain = 0
KCL1 210317Z 16005KT 27/15 A3009 RMK A01 T02720154  RH  048%=      5-min Rain = 0
KCL1 210318Z 16005KT 27/15 A3009 RMK A01 T02710153  RH  048%=      5-min Rain = 0
KCL1 210319Z 16005KT 27/15 A3009 RMK A01 T02700151  RH  048%=      5-min Rain = 0
KCL1 210320Z 16005KT 27/15 A3009 RMK A01 T02700149  RH  048%=      5-min Rain = 0
KCL1 210321Z 16005KT 27/15 A3009 RMK A01 T02710149  RH  047%=      5-min Rain = 0
KCL1 210322Z 16005KT 27/15 A3009 RMK A01 T02710150  RH  048%=      5-min Rain = 0
KCL1 210323Z 16005KT 27/15 A3009 RMK A01 T02710150  RH  048%=      5-min Rain = 0
KCL1 210324Z 16005KT 27/15 A3009 RMK A01 T02710150  RH  048%=      5-min Rain = 0
KCL1 210325Z 16005KT 27/15 A3009 RMK A01 T02710151  RH  048%=      5-min Rain = 0
KCL1 210326Z 16005KT 27/15 A3009 RMK A01 T02710149  RH  047%=      5-min Rain = 0
KCL1 210327Z 16004KT 27/15 A3009 RMK A01 T02700148  RH  047%=      5-min Rain = 0
KCL1 210328Z 15005KT 27/15 A3009 RMK A01 T02700148  RH  047%=      5-min Rain = 0
KCL1 210329Z 15005KT 27/15 A3009 RMK A01 T02710149  RH  047%=      5-min Rain = 0
KCL1 210330Z 15006KT 27/15 A3009 RMK A01 T02710149  RH  047%=      5-min Rain = 0
KCL1 210331Z 14006KT 27/15 A3009 RMK A01 T02710150  RH  047%=      5-min Rain = 0
KCL1 210332Z 14005KT 27/15 A3009 RMK A01 T02710153  RH  049%=      5-min Rain = 0
KCL1 210333Z 14005KT 27/15 A3009 RMK A01 T02700151  RH  048%=      5-min Rain = 0
KCL1 210334Z 13005KT 27/15 A3009 RMK A01 T02690150  RH  048%=      5-min Rain = 0
KCL1 210335Z 13006KT 27/15 A3009 RMK A01 T02670153  RH  049%=      5-min Rain = 0
KCL1 210336Z 14007KT 27/15 A3009 RMK A01 T02660154  RH  050%=      5-min Rain = 0
KCL1 210337Z 14008KT 26/15 A3009 RMK A01 T02640152  RH  050%=      5-min Rain = 0
KCL1 210338Z 14008KT 26/15 A3009 RMK A01 T02630151  RH  050%=      5-min Rain = 0
KCL1 210339Z 14008KT 26/15 A3009 RMK A01 T02630150  RH  050%=      5-min Rain = 0
KCL1 210340Z 14008KT 26/15 A3009 RMK A01 T02630150  RH  050%=      5-min Rain = 0
KCL1 210341Z 14007KT 26/15 A3009 RMK A01 T02630149  RH  050%=      5-min Rain = 0
KCL1 210342Z 14008KT 26/15 A3009 RMK A01 T02630149  RH  049%=      5-min Rain = 0
KCL1 210343Z 14007KT 26/15 A3009 RMK A01 T02630149  RH  049%=      5-min Rain = 0
KCL1 210344Z 13007KT 26/15 A3009 RMK A01 T02630150  RH  050%=      5-min Rain = 0
KCL1 210345Z 13007KT 26/15 A3009 RMK A01 T02630149  RH  050%=      5-min Rain = 0
KCL1 210346Z 13007KT 26/15 A3009 RMK A01 T02630150  RH  050%=      5-min Rain = 0
KCL1 210347Z 13007KT 26/15 A3009 RMK A01 T02620150  RH  050%=      5-min Rain = 0
KCL1 210348Z 13007KT 26/15 A3009 RMK A01 T02620150  RH  050%=      5-min Rain = 0
KCL1 210349Z 13007KT 26/15 A3009 RMK A01 T02610150  RH  050%=      5-min Rain = 0
KCL1 210350Z 12007KT 26/15 A3009 RMK A01 T02610150  RH  051%=      5-min Rain = 0
KCL1 210351Z 12007KT 26/15 A3009 RMK A01 T02590150  RH  051%=      5-min Rain = 0
KCL1 210352Z 13007KT 26/15 A3009 RMK A01 T02580151  RH  052%=      5-min Rain = 0
KCL1 210353Z 12007KT 26/15 A3009 RMK A01 T02570151  RH  052%=      5-min Rain = 0
KCL1 210354Z 12008KT 26/15 A3009 RMK A01 T02570151  RH  052%=      5-min Rain = 0
KCL1 210355Z 13007KT 26/15 A3009 RMK A01 T02570151  RH  052%=      5-min Rain = 0
KCL1 210356Z 13007KT 26/15 A3009 RMK A01 T02570151  RH  052%=      5-min Rain = 0
KCL1 210357Z 13006KT 26/15 A3009 RMK A01 T02570151  RH  052%=      5-min Rain = 0
KCL1 210358Z 13007KT 26/15 A3009 RMK A01 T02570151  RH  052%=      5-min Rain = 0
KCL1 210359Z 13007KT 26/15 A3009 RMK A01 T02570150  RH  052%=      5-min Rain = 0
KCL1 210400Z 13007KT 26/15 A3009 RMK A01 T02570149  RH  051%=      5-min Rain = 0
KCL1 210401Z 14006KT 26/15 A3009 RMK A01 T02570150  RH  051%=      5-min Rain = 0
KCL1 210402Z 14006KT 26/15 A3009 RMK A01 T02570150  RH  052%=      5-min Rain = 0
KCL1 210403Z 14006KT 26/15 A3009 RMK A01 T02570150  RH  052%=      5-min Rain = 0
KCL1 210404Z 14006KT 26/15 A3009 RMK A01 T02570150  RH  052%=      5-min Rain = 0
KCL1 210405Z 14007KT 26/15 A3009 RMK A01 T02570149  RH  051%=      5-min Rain = 0
KCL1 210406Z 15007KT 26/15 A3009 RMK A01 T02580147  RH  050%=      5-min Rain = 0
KCL1 210407Z 15008KT 26/15 A3009 RMK A01 T02590148  RH  050%=      5-min Rain = 0
KCL1 210408Z 15008KT 26/15 A3009 RMK A01 T02600148  RH  050%=      5-min Rain = 0
KCL1 210409Z 15008KT 26/15 A3009 RMK A01 T02610148  RH  050%=      5-min Rain = 0
KCL1 210410Z 15008KT 26/15 A3009 RMK A01 T02620147  RH  049%=      5-min Rain = 0
KCL1 210411Z 15008KT 26/15 A3009 RMK A01 T02620146  RH  049%=      5-min Rain = 0
KCL1 210412Z 15008KT 26/15 A3009 RMK A01 T02640146  RH  048%=      5-min Rain = 0
KCL1 210413Z 15008KT 27/15 A3009 RMK A01 T02650145  RH  048%=      5-min Rain = 0
KCL1 210414Z 15008KT 27/15 A301 RMK A01 T02660145  RH  048%=      5-min Rain = 0
KCL1 210415Z 15007KT 27/15 A301 RMK A01 T02660146  RH  047%=      5-min Rain = 0
KCL1 210416Z 15007KT 27/15 A301 RMK A01 T02670146  RH  047%=      5-min Rain = 0
KCL1 210417Z 15007KT 27/15 A301 RMK A01 T02670145  RH  047%=      5-min Rain = 0
KCL1 210418Z 15007KT 27/15 A301 RMK A01 T02670145  RH  047%=      5-min Rain = 0
KCL1 210419Z 15007KT 27/15 A301 RMK A01 T02670145  RH  047%=      5-min Rain = 0
KCL1 210420Z 15007KT 27/14 A301 RMK A01 T02660144  RH  047%=      5-min Rain = 0
KCL1 210421Z 15008KT 27/15 A301 RMK A01 T02660145  RH  047%=      5-min Rain = 0
KCL1 210422Z 15007KT 27/14 A301 RMK A01 T02660144  RH  047%=      5-min Rain = 0
KCL1 210423Z 15007KT 27/14 A301 RMK A01 T02660144  RH  047%=      5-min Rain = 0
KCL1 210424Z 15007KT 27/14 A301 RMK A01 T02660143  RH  047%=      5-min Rain = 0
KCL1 210425Z 15007KT 27/14 A301 RMK A01 T02660142  RH  047%=      5-min Rain = 0
KCL1 210426Z 15007KT 27/14 A301 RMK A01 T02670143  RH  046%=      5-min Rain = 0
KCL1 210427Z 15007KT 27/14 A301 RMK A01 T02670142  RH  046%=      5-min Rain = 0
KCL1 210428Z 15007KT 27/14 A301 RMK A01 T02670141  RH  046%=      5-min Rain = 0
KCL1 210429Z 15007KT 27/14 A301 RMK A01 T02680141  RH  046%=      5-min Rain = 0
KCL1 210430Z 15007KT 27/14 A301 RMK A01 T02680141  RH  046%=      5-min Rain = 0
KCL1 210431Z 15007KT 27/14 A301 RMK A01 T02690140  RH  045%=      5-min Rain = 0
KCL1 210432Z 15007KT 27/14 A301 RMK A01 T02690140  RH  045%=      5-min Rain = 0
KCL1 210433Z 15007KT 27/14 A301 RMK A01 T02690140  RH  045%=      5-min Rain = 0
KCL1 210434Z 15007KT 27/14 A301 RMK A01 T02700139  RH  045%=      5-min Rain = 0
KCL1 210435Z 15007KT 27/14 A301 RMK A01 T02700140  RH  045%=      5-min Rain = 0
KCL1 210436Z 15007KT 27/14 A301 RMK A01 T02700138  RH  044%=      5-min Rain = 0
KCL1 210437Z 15007KT 27/14 A301 RMK A01 T02710139  RH  044%=      5-min Rain = 0
KCL1 210438Z 16006KT 27/14 A301 RMK A01 T02710138  RH  044%=      5-min Rain = 0
KCL1 210439Z 15007KT 27/14 A301 RMK A01 T02710137  RH  044%=      5-min Rain = 0
KCL1 210440Z 15007KT 27/14 A301 RMK A01 T02720138  RH  044%=      5-min Rain = 0
KCL1 210441Z 15007KT 27/14 A301 RMK A01 T02720137  RH  044%=      5-min Rain = 0
KCL1 210442Z 15008KT 27/14 A301 RMK A01 T02720138  RH  044%=      5-min Rain = 0
KCL1 210443Z 15007KT 27/14 A301 RMK A01 T02720138  RH  044%=      5-min Rain = 0
KCL1 210444Z 15008KT 27/14 A301 RMK A01 T02720139  RH  044%=      5-min Rain = 0
KCL1 210445Z 15008KT 27/14 A301 RMK A01 T02710139  RH  044%=      5-min Rain = 0
KCL1 210446Z 15007KT 27/14 A3009 RMK A01 T02700138  RH  044%=      5-min Rain = 0
KCL1 210447Z 15008KT 27/14 A3009 RMK A01 T02700137  RH  044%=      5-min Rain = 0
KCL1 210448Z 15007KT 27/14 A3009 RMK A01 T02710138  RH  044%=      5-min Rain = 0
KCL1 210449Z 15007KT 27/14 A3009 RMK A01 T02710137  RH  044%=      5-min Rain = 0
KCL1 210450Z 15007KT 27/14 A3009 RMK A01 T02710138  RH  044%=      5-min Rain = 0
KCL1 210451Z 15006KT 27/14 A301 RMK A01 T02720139  RH  044%=      5-min Rain = 0
KCL1 210452Z 15007KT 27/14 A301 RMK A01 T02710139  RH  044%=      5-min Rain = 0
KCL1 210453Z 15006KT 27/14 A301 RMK A01 T02700139  RH  044%=      5-min Rain = 0
KCL1 210454Z 14006KT 27/14 A301 RMK A01 T02690139  RH  045%=      5-min Rain = 0
KCL1 210455Z 14007KT 27/14 A301 RMK A01 T02690138  RH  045%=      5-min Rain = 0
KCL1 210456Z 15007KT 27/14 A301 RMK A01 T02680138  RH  045%=      5-min Rain = 0
KCL1 210457Z 15007KT 27/14 A301 RMK A01 T02690137  RH  044%=      5-min Rain = 0
KCL1 210458Z 14008KT 27/14 A301 RMK A01 T02700138  RH  044%=      5-min Rain = 0
KCL1 210459Z 14007KT 27/14 A301 RMK A01 T02710139  RH  044%=      5-min Rain = 0

Page generated in 0.122 seconds.